<?xml version="1.0" encoding="UTF-8"?>
<gpx version="1.1" creator="Yamatabi logger for Android"
xmlns:xsi="http://www.w3.org/2001/XMLSchema-instance"
xmlns="http://www.topografix.com/GPX/1/1"
xmlns:chizroid="http://www.chizroid.info/ns/gpx"
xsi:schemaLocation="http://www.topografix.com/GPX/1/1 http://www.topografix.com/GPX/1/1/gpx.xsd
 http://www.chizroid.info/ns/gpx http://www.chizroid.info/ns/gpx.xsd">
<trk>
<name><![CDATA[2026-05-03富士山]]></name>
<trkseg>
<trkpt lat="35.336584" lon="138.736549"><ele>2374</ele><time>2026-05-02T19:55:39Z</time></trkpt>
<trkpt lat="35.336607" lon="138.736526"><ele>2374</ele><time>2026-05-02T19:55:45Z</time></trkpt>
<trkpt lat="35.336605" lon="138.736507"><ele>2374</ele><time>2026-05-02T19:56:06Z</time></trkpt>
<trkpt lat="35.336604" lon="138.736582"><ele>2374</ele><time>2026-05-02T19:56:20Z</time></trkpt>
<trkpt lat="35.336602" lon="138.736674"><ele>2374</ele><time>2026-05-02T19:56:38Z</time></trkpt>
<trkpt lat="35.336486" lon="138.736869"><ele>2372</ele><time>2026-05-02T19:56:56Z</time></trkpt>
<trkpt lat="35.336482" lon="138.736945"><ele>2372</ele><time>2026-05-02T19:57:05Z</time></trkpt>
<trkpt lat="35.336479" lon="138.737025"><ele>2371</ele><time>2026-05-02T19:57:15Z</time></trkpt>
<trkpt lat="35.336507" lon="138.737086"><ele>2371</ele><time>2026-05-02T19:57:24Z</time></trkpt>
<trkpt lat="35.336577" lon="138.73711"><ele>2373</ele><time>2026-05-02T19:57:36Z</time></trkpt>
<trkpt lat="35.336615" lon="138.737124"><ele>2375</ele><time>2026-05-02T19:57:49Z</time></trkpt>
<trkpt lat="35.336675" lon="138.737113"><ele>2377</ele><time>2026-05-02T19:58:05Z</time></trkpt>
<trkpt lat="35.336671" lon="138.737075"><ele>2377</ele><time>2026-05-02T19:58:21Z</time></trkpt>
<trkpt lat="35.33667" lon="138.737074"><ele>2377</ele><time>2026-05-02T19:58:39Z</time></trkpt>
<trkpt lat="35.336697" lon="138.736951"><ele>2382</ele><time>2026-05-02T19:59:00Z</time></trkpt>
<trkpt lat="35.336749" lon="138.736928"><ele>2383</ele><time>2026-05-02T19:59:17Z</time></trkpt>
<trkpt lat="35.336862" lon="138.73681"><ele>2389</ele><time>2026-05-02T19:59:42Z</time></trkpt>
<trkpt lat="35.336932" lon="138.736755"><ele>2392</ele><time>2026-05-02T20:00:01Z</time></trkpt>
<trkpt lat="35.336975" lon="138.736604"><ele>2393</ele><time>2026-05-02T20:00:20Z</time></trkpt>
<trkpt lat="35.337099" lon="138.736622"><ele>2399</ele><time>2026-05-02T20:00:44Z</time></trkpt>
<trkpt lat="35.337157" lon="138.73652"><ele>2400</ele><time>2026-05-02T20:01:02Z</time></trkpt>
<trkpt lat="35.337203" lon="138.736487"><ele>2401</ele><time>2026-05-02T20:01:20Z</time></trkpt>
<trkpt lat="35.337286" lon="138.736414"><ele>2403</ele><time>2026-05-02T20:01:42Z</time></trkpt>
<trkpt lat="35.337368" lon="138.736349"><ele>2407</ele><time>2026-05-02T20:02:04Z</time></trkpt>
<trkpt lat="35.337443" lon="138.73626"><ele>2408</ele><time>2026-05-02T20:02:26Z</time></trkpt>
<trkpt lat="35.337498" lon="138.736151"><ele>2409</ele><time>2026-05-02T20:02:47Z</time></trkpt>
<trkpt lat="35.337555" lon="138.736016"><ele>2413</ele><time>2026-05-02T20:03:09Z</time></trkpt>
<trkpt lat="35.337574" lon="138.735876"><ele>2415</ele><time>2026-05-02T20:03:30Z</time></trkpt>
<trkpt lat="35.337581" lon="138.735697"><ele>2416</ele><time>2026-05-02T20:03:52Z</time></trkpt>
<trkpt lat="35.337566" lon="138.73559"><ele>2417</ele><time>2026-05-02T20:04:07Z</time></trkpt>
<trkpt lat="35.337553" lon="138.735456"><ele>2420</ele><time>2026-05-02T20:04:23Z</time></trkpt>
<trkpt lat="35.337532" lon="138.735359"><ele>2420</ele><time>2026-05-02T20:04:38Z</time></trkpt>
<trkpt lat="35.337513" lon="138.73524"><ele>2423</ele><time>2026-05-02T20:04:54Z</time></trkpt>
<trkpt lat="35.33748" lon="138.735147"><ele>2424</ele><time>2026-05-02T20:05:09Z</time></trkpt>
<trkpt lat="35.337508" lon="138.735059"><ele>2426</ele><time>2026-05-02T20:05:25Z</time></trkpt>
<trkpt lat="35.337586" lon="138.735095"><ele>2428</ele><time>2026-05-02T20:05:41Z</time></trkpt>
<trkpt lat="35.337648" lon="138.735155"><ele>2430</ele><time>2026-05-02T20:05:57Z</time></trkpt>
<trkpt lat="35.337709" lon="138.73521"><ele>2431</ele><time>2026-05-02T20:06:13Z</time></trkpt>
<trkpt lat="35.337801" lon="138.735267"><ele>2434</ele><time>2026-05-02T20:06:29Z</time></trkpt>
<trkpt lat="35.337872" lon="138.735328"><ele>2435</ele><time>2026-05-02T20:06:45Z</time></trkpt>
<trkpt lat="35.337932" lon="138.735401"><ele>2436</ele><time>2026-05-02T20:07:01Z</time></trkpt>
<trkpt lat="35.338006" lon="138.735455"><ele>2438</ele><time>2026-05-02T20:07:16Z</time></trkpt>
<trkpt lat="35.338069" lon="138.735517"><ele>2440</ele><time>2026-05-02T20:07:32Z</time></trkpt>
<trkpt lat="35.338121" lon="138.735581"><ele>2440</ele><time>2026-05-02T20:07:48Z</time></trkpt>
<trkpt lat="35.338181" lon="138.735658"><ele>2443</ele><time>2026-05-02T20:08:04Z</time></trkpt>
<trkpt lat="35.338234" lon="138.735699"><ele>2444</ele><time>2026-05-02T20:08:19Z</time></trkpt>
<trkpt lat="35.338281" lon="138.735759"><ele>2446</ele><time>2026-05-02T20:08:35Z</time></trkpt>
<trkpt lat="35.33831" lon="138.735818"><ele>2448</ele><time>2026-05-02T20:08:50Z</time></trkpt>
<trkpt lat="35.338351" lon="138.735898"><ele>2449</ele><time>2026-05-02T20:09:09Z</time></trkpt>
<trkpt lat="35.338405" lon="138.735973"><ele>2451</ele><time>2026-05-02T20:09:28Z</time></trkpt>
<trkpt lat="35.338468" lon="138.73604"><ele>2454</ele><time>2026-05-02T20:09:47Z</time></trkpt>
<trkpt lat="35.338491" lon="138.736086"><ele>2456</ele><time>2026-05-02T20:10:05Z</time></trkpt>
<trkpt lat="35.338494" lon="138.736091"><ele>2456</ele><time>2026-05-02T20:10:21Z</time></trkpt>
<trkpt lat="35.338545" lon="138.736169"><ele>2458</ele><time>2026-05-02T20:10:45Z</time></trkpt>
<trkpt lat="35.338621" lon="138.736271"><ele>2463</ele><time>2026-05-02T20:11:10Z</time></trkpt>
<trkpt lat="35.338686" lon="138.736372"><ele>2465</ele><time>2026-05-02T20:11:35Z</time></trkpt>
<trkpt lat="35.338736" lon="138.736476"><ele>2469</ele><time>2026-05-02T20:11:59Z</time></trkpt>
<trkpt lat="35.338779" lon="138.736583"><ele>2471</ele><time>2026-05-02T20:12:24Z</time></trkpt>
<trkpt lat="35.33883" lon="138.736696"><ele>2476</ele><time>2026-05-02T20:12:48Z</time></trkpt>
<trkpt lat="35.338877" lon="138.736798"><ele>2478</ele><time>2026-05-02T20:13:13Z</time></trkpt>
<trkpt lat="35.338875" lon="138.736909"><ele>2481</ele><time>2026-05-02T20:13:38Z</time></trkpt>
<trkpt lat="35.338894" lon="138.737025"><ele>2484</ele><time>2026-05-02T20:14:03Z</time></trkpt>
<trkpt lat="35.338894" lon="138.737161"><ele>2486</ele><time>2026-05-02T20:14:27Z</time></trkpt>
<trkpt lat="35.338948" lon="138.737206"><ele>2489</ele><time>2026-05-02T20:14:51Z</time></trkpt>
<trkpt lat="35.339108" lon="138.737292"><ele>2491</ele><time>2026-05-02T20:15:16Z</time></trkpt>
<trkpt lat="35.33919" lon="138.737369"><ele>2493</ele><time>2026-05-02T20:15:32Z</time></trkpt>
<trkpt lat="35.339164" lon="138.737531"><ele>2492</ele><time>2026-05-02T20:15:49Z</time></trkpt>
<trkpt lat="35.339147" lon="138.737687"><ele>2494</ele><time>2026-05-02T20:16:06Z</time></trkpt>
<trkpt lat="35.33917" lon="138.737868"><ele>2495</ele><time>2026-05-02T20:16:23Z</time></trkpt>
<trkpt lat="35.339191" lon="138.737948"><ele>2495</ele><time>2026-05-02T20:16:34Z</time></trkpt>
<trkpt lat="35.339197" lon="138.737968"><ele>2495</ele><time>2026-05-02T20:16:45Z</time></trkpt>
<trkpt lat="35.339209" lon="138.738129"><ele>2495</ele><time>2026-05-02T20:16:58Z</time></trkpt>
<trkpt lat="35.339245" lon="138.738274"><ele>2494</ele><time>2026-05-02T20:17:12Z</time></trkpt>
<trkpt lat="35.339305" lon="138.738276"><ele>2495</ele><time>2026-05-02T20:17:26Z</time></trkpt>
<trkpt lat="35.33939" lon="138.738267"><ele>2499</ele><time>2026-05-02T20:17:40Z</time></trkpt>
<trkpt lat="35.33943" lon="138.738255"><ele>2501</ele><time>2026-05-02T20:17:53Z</time></trkpt>
<trkpt lat="35.339463" lon="138.738249"><ele>2503</ele><time>2026-05-02T20:18:10Z</time></trkpt>
<trkpt lat="35.339528" lon="138.738307"><ele>2505</ele><time>2026-05-02T20:18:29Z</time></trkpt>
<trkpt lat="35.339539" lon="138.738305"><ele>2507</ele><time>2026-05-02T20:18:43Z</time></trkpt>
<trkpt lat="35.339594" lon="138.738144"><ele>2509</ele><time>2026-05-02T20:19:06Z</time></trkpt>
<trkpt lat="35.339599" lon="138.738034"><ele>2513</ele><time>2026-05-02T20:19:28Z</time></trkpt>
<trkpt lat="35.339643" lon="138.738037"><ele>2514</ele><time>2026-05-02T20:19:50Z</time></trkpt>
<trkpt lat="35.339696" lon="138.737987"><ele>2516</ele><time>2026-05-02T20:20:16Z</time></trkpt>
<trkpt lat="35.339743" lon="138.737921"><ele>2521</ele><time>2026-05-02T20:20:41Z</time></trkpt>
<trkpt lat="35.33978" lon="138.737937"><ele>2522</ele><time>2026-05-02T20:21:06Z</time></trkpt>
<trkpt lat="35.339847" lon="138.737978"><ele>2525</ele><time>2026-05-02T20:21:29Z</time></trkpt>
<trkpt lat="35.339985" lon="138.738062"><ele>2530</ele><time>2026-05-02T20:21:58Z</time></trkpt>
<trkpt lat="35.34005" lon="138.738127"><ele>2532</ele><time>2026-05-02T20:22:21Z</time></trkpt>
<trkpt lat="35.340103" lon="138.738183"><ele>2535</ele><time>2026-05-02T20:22:44Z</time></trkpt>
<trkpt lat="35.340147" lon="138.73821"><ele>2537</ele><time>2026-05-02T20:23:06Z</time></trkpt>
<trkpt lat="35.340194" lon="138.73806"><ele>2539</ele><time>2026-05-02T20:23:32Z</time></trkpt>
<trkpt lat="35.340226" lon="138.738"><ele>2542</ele><time>2026-05-02T20:24:23Z</time></trkpt>
<trkpt lat="35.340318" lon="138.738018"><ele>2548</ele><time>2026-05-02T20:24:52Z</time></trkpt>
<trkpt lat="35.340417" lon="138.738069"><ele>2553</ele><time>2026-05-02T20:25:20Z</time></trkpt>
<trkpt lat="35.340499" lon="138.738139"><ele>2555</ele><time>2026-05-02T20:25:49Z</time></trkpt>
<trkpt lat="35.340582" lon="138.738184"><ele>2559</ele><time>2026-05-02T20:26:40Z</time></trkpt>
<trkpt lat="35.340665" lon="138.73805"><ele>2565</ele><time>2026-05-02T20:27:11Z</time></trkpt>
<trkpt lat="35.340674" lon="138.737913"><ele>2568</ele><time>2026-05-02T20:27:43Z</time></trkpt>
<trkpt lat="35.340643" lon="138.737726"><ele>2571</ele><time>2026-05-02T20:28:15Z</time></trkpt>
<trkpt lat="35.34066" lon="138.737628"><ele>2575</ele><time>2026-05-02T20:28:41Z</time></trkpt>
<trkpt lat="35.340682" lon="138.737597"><ele>2575</ele><time>2026-05-02T20:29:06Z</time></trkpt>
<trkpt lat="35.340807" lon="138.737697"><ele>2580</ele><time>2026-05-02T20:29:35Z</time></trkpt>
<trkpt lat="35.340863" lon="138.737632"><ele>2585</ele><time>2026-05-02T20:29:58Z</time></trkpt>
<trkpt lat="35.340907" lon="138.737563"><ele>2587</ele><time>2026-05-02T20:30:21Z</time></trkpt>
<trkpt lat="35.340944" lon="138.737571"><ele>2588</ele><time>2026-05-02T20:30:43Z</time></trkpt>
<trkpt lat="35.341028" lon="138.737696"><ele>2590</ele><time>2026-05-02T20:31:08Z</time></trkpt>
<trkpt lat="35.341136" lon="138.737762"><ele>2592</ele><time>2026-05-02T20:31:33Z</time></trkpt>
<trkpt lat="35.341148" lon="138.737773"><ele>2593</ele><time>2026-05-02T20:31:57Z</time></trkpt>
<trkpt lat="35.341148" lon="138.737773"><ele>2593</ele><time>2026-05-02T20:32:06Z</time></trkpt>
<trkpt lat="35.341198" lon="138.737565"><ele>2600</ele><time>2026-05-02T20:32:38Z</time></trkpt>
<trkpt lat="35.34123" lon="138.737448"><ele>2605</ele><time>2026-05-02T20:33:01Z</time></trkpt>
<trkpt lat="35.341198" lon="138.737378"><ele>2605</ele><time>2026-05-02T20:33:16Z</time></trkpt>
<trkpt lat="35.341186" lon="138.73723"><ele>2608</ele><time>2026-05-02T20:33:40Z</time></trkpt>
<trkpt lat="35.34117" lon="138.737138"><ele>2609</ele><time>2026-05-02T20:34:02Z</time></trkpt>
<trkpt lat="35.341264" lon="138.737142"><ele>2613</ele><time>2026-05-02T20:34:25Z</time></trkpt>
<trkpt lat="35.341346" lon="138.737068"><ele>2617</ele><time>2026-05-02T20:35:13Z</time></trkpt>
<trkpt lat="35.341405" lon="138.737081"><ele>2620</ele><time>2026-05-02T20:35:37Z</time></trkpt>
<trkpt lat="35.341469" lon="138.737079"><ele>2623</ele><time>2026-05-02T20:36:01Z</time></trkpt>
<trkpt lat="35.34147" lon="138.737085"><ele>2623</ele><time>2026-05-02T20:36:14Z</time></trkpt>
<trkpt lat="35.341593" lon="138.737149"><ele>2627</ele><time>2026-05-02T20:37:08Z</time></trkpt>
<trkpt lat="35.341697" lon="138.736998"><ele>2634</ele><time>2026-05-02T20:37:37Z</time></trkpt>
<trkpt lat="35.341918" lon="138.737014"><ele>2646</ele><time>2026-05-02T20:39:19Z</time></trkpt>
<trkpt lat="35.341967" lon="138.737014"><ele>2647</ele><time>2026-05-02T20:39:48Z</time></trkpt>
<trkpt lat="35.342053" lon="138.736955"><ele>2653</ele><time>2026-05-02T20:40:19Z</time></trkpt>
<trkpt lat="35.342055" lon="138.736957"><ele>2653</ele><time>2026-05-02T20:40:51Z</time></trkpt>
<trkpt lat="35.342238" lon="138.736954"><ele>2662</ele><time>2026-05-02T20:41:25Z</time></trkpt>
<trkpt lat="35.342299" lon="138.736944"><ele>2665</ele><time>2026-05-02T20:41:52Z</time></trkpt>
<trkpt lat="35.342304" lon="138.736824"><ele>2668</ele><time>2026-05-02T20:42:42Z</time></trkpt>
<trkpt lat="35.342378" lon="138.736811"><ele>2673</ele><time>2026-05-02T20:43:10Z</time></trkpt>
<trkpt lat="35.342539" lon="138.736836"><ele>2679</ele><time>2026-05-02T20:43:39Z</time></trkpt>
<trkpt lat="35.342618" lon="138.736871"><ele>2681</ele><time>2026-05-02T20:44:02Z</time></trkpt>
<trkpt lat="35.342626" lon="138.736868"><ele>2681</ele><time>2026-05-02T20:44:25Z</time></trkpt>
<trkpt lat="35.342665" lon="138.736711"><ele>2686</ele><time>2026-05-02T20:44:51Z</time></trkpt>
<trkpt lat="35.342712" lon="138.736719"><ele>2687</ele><time>2026-05-02T20:45:17Z</time></trkpt>
<trkpt lat="35.342818" lon="138.73679"><ele>2691</ele><time>2026-05-02T20:45:46Z</time></trkpt>
<trkpt lat="35.342823" lon="138.73679"><ele>2693</ele><time>2026-05-02T20:46:14Z</time></trkpt>
<trkpt lat="35.342962" lon="138.736797"><ele>2700</ele><time>2026-05-02T20:47:14Z</time></trkpt>
<trkpt lat="35.343074" lon="138.736765"><ele>2706</ele><time>2026-05-02T20:47:43Z</time></trkpt>
<trkpt lat="35.343119" lon="138.736807"><ele>2708</ele><time>2026-05-02T20:48:11Z</time></trkpt>
<trkpt lat="35.343211" lon="138.736849"><ele>2713</ele><time>2026-05-02T20:48:43Z</time></trkpt>
<trkpt lat="35.343333" lon="138.736823"><ele>2717</ele><time>2026-05-02T20:49:14Z</time></trkpt>
<trkpt lat="35.34341" lon="138.736854"><ele>2721</ele><time>2026-05-02T20:49:45Z</time></trkpt>
<trkpt lat="35.343516" lon="138.736921"><ele>2725</ele><time>2026-05-02T20:50:17Z</time></trkpt>
<trkpt lat="35.343536" lon="138.736918"><ele>2726</ele><time>2026-05-02T20:50:49Z</time></trkpt>
<trkpt lat="35.343588" lon="138.736821"><ele>2732</ele><time>2026-05-02T20:51:24Z</time></trkpt>
<trkpt lat="35.343625" lon="138.736755"><ele>2736</ele><time>2026-05-02T20:51:37Z</time></trkpt>
<trkpt lat="35.343706" lon="138.736751"><ele>2742</ele><time>2026-05-02T20:52:12Z</time></trkpt>
<trkpt lat="35.343706" lon="138.736751"><ele>2742</ele><time>2026-05-02T20:52:38Z</time></trkpt>
<trkpt lat="35.343798" lon="138.736708"><ele>2747</ele><time>2026-05-02T20:53:16Z</time></trkpt>
<trkpt lat="35.343798" lon="138.736708"><ele>2747</ele><time>2026-05-02T20:53:18Z</time></trkpt>
<trkpt lat="35.343893" lon="138.736723"><ele>2753</ele><time>2026-05-02T20:53:58Z</time></trkpt>
<trkpt lat="35.343991" lon="138.736723"><ele>2759</ele><time>2026-05-02T20:54:36Z</time></trkpt>
<trkpt lat="35.344056" lon="138.736751"><ele>2763</ele><time>2026-05-02T20:54:55Z</time></trkpt>
<trkpt lat="35.344158" lon="138.736773"><ele>2767</ele><time>2026-05-02T20:55:35Z</time></trkpt>
<trkpt lat="35.344203" lon="138.736666"><ele>2772</ele><time>2026-05-02T20:56:15Z</time></trkpt>
<trkpt lat="35.344265" lon="138.736583"><ele>2777</ele><time>2026-05-02T20:56:49Z</time></trkpt>
<trkpt lat="35.344328" lon="138.736498"><ele>2782</ele><time>2026-05-02T20:57:27Z</time></trkpt>
<trkpt lat="35.3444" lon="138.73649"><ele>2786</ele><time>2026-05-02T20:58:09Z</time></trkpt>
<trkpt lat="35.3444" lon="138.73649"><ele>2786</ele><time>2026-05-02T20:58:11Z</time></trkpt>
<trkpt lat="35.34455" lon="138.73659"><ele>2792</ele><time>2026-05-02T20:58:54Z</time></trkpt>
<trkpt lat="35.344626" lon="138.736778"><ele>2792</ele><time>2026-05-02T20:59:31Z</time></trkpt>
<trkpt lat="35.344631" lon="138.736776"><ele>2792</ele><time>2026-05-02T20:59:52Z</time></trkpt>
<trkpt lat="35.344643" lon="138.736763"><ele>2793</ele><time>2026-05-02T21:00:24Z</time></trkpt>
<trkpt lat="35.344688" lon="138.73666"><ele>2796</ele><time>2026-05-02T21:00:42Z</time></trkpt>
<trkpt lat="35.344704" lon="138.736477"><ele>2800</ele><time>2026-05-02T21:01:18Z</time></trkpt>
<trkpt lat="35.344724" lon="138.736316"><ele>2805</ele><time>2026-05-02T21:01:47Z</time></trkpt>
<trkpt lat="35.344736" lon="138.73617"><ele>2807</ele><time>2026-05-02T21:02:17Z</time></trkpt>
<trkpt lat="35.344817" lon="138.736171"><ele>2810</ele><time>2026-05-02T21:02:46Z</time></trkpt>
<trkpt lat="35.344884" lon="138.736237"><ele>2813</ele><time>2026-05-02T21:03:15Z</time></trkpt>
<trkpt lat="35.344889" lon="138.736245"><ele>2815</ele><time>2026-05-02T21:03:35Z</time></trkpt>
<trkpt lat="35.345043" lon="138.736362"><ele>2821</ele><time>2026-05-02T21:04:07Z</time></trkpt>
<trkpt lat="35.345081" lon="138.736273"><ele>2824</ele><time>2026-05-02T21:04:32Z</time></trkpt>
<trkpt lat="35.345124" lon="138.736194"><ele>2827</ele><time>2026-05-02T21:04:57Z</time></trkpt>
<trkpt lat="35.345199" lon="138.736264"><ele>2830</ele><time>2026-05-02T21:05:22Z</time></trkpt>
<trkpt lat="35.345253" lon="138.736307"><ele>2832</ele><time>2026-05-02T21:05:46Z</time></trkpt>
<trkpt lat="35.345271" lon="138.736313"><ele>2833</ele><time>2026-05-02T21:06:10Z</time></trkpt>
<trkpt lat="35.345416" lon="138.736355"><ele>2841</ele><time>2026-05-02T21:06:38Z</time></trkpt>
<trkpt lat="35.345443" lon="138.736321"><ele>2840</ele><time>2026-05-02T21:07:00Z</time></trkpt>
<trkpt lat="35.345479" lon="138.736213"><ele>2847</ele><time>2026-05-02T21:07:25Z</time></trkpt>
<trkpt lat="35.345487" lon="138.736201"><ele>2847</ele><time>2026-05-02T21:08:17Z</time></trkpt>
<trkpt lat="35.345581" lon="138.736247"><ele>2850</ele><time>2026-05-02T21:08:47Z</time></trkpt>
<trkpt lat="35.345661" lon="138.736316"><ele>2855</ele><time>2026-05-02T21:09:14Z</time></trkpt>
<trkpt lat="35.345751" lon="138.736372"><ele>2858</ele><time>2026-05-02T21:09:44Z</time></trkpt>
<trkpt lat="35.345837" lon="138.73644"><ele>2863</ele><time>2026-05-02T21:10:15Z</time></trkpt>
<trkpt lat="35.345975" lon="138.736505"><ele>2869</ele><time>2026-05-02T21:10:46Z</time></trkpt>
<trkpt lat="35.345979" lon="138.736508"><ele>2869</ele><time>2026-05-02T21:11:10Z</time></trkpt>
<trkpt lat="35.346063" lon="138.736571"><ele>2873</ele><time>2026-05-02T21:11:38Z</time></trkpt>
<trkpt lat="35.346146" lon="138.736469"><ele>2879</ele><time>2026-05-02T21:12:06Z</time></trkpt>
<trkpt lat="35.34615" lon="138.736452"><ele>2879</ele><time>2026-05-02T21:12:33Z</time></trkpt>
<trkpt lat="35.34617" lon="138.736339"><ele>2880</ele><time>2026-05-02T21:13:04Z</time></trkpt>
<trkpt lat="35.346293" lon="138.736256"><ele>2889</ele><time>2026-05-02T21:13:34Z</time></trkpt>
<trkpt lat="35.346335" lon="138.736298"><ele>2891</ele><time>2026-05-02T21:13:58Z</time></trkpt>
<trkpt lat="35.34634" lon="138.736311"><ele>2891</ele><time>2026-05-02T21:14:22Z</time></trkpt>
<trkpt lat="35.346444" lon="138.736413"><ele>2896</ele><time>2026-05-02T21:14:50Z</time></trkpt>
<trkpt lat="35.346447" lon="138.736418"><ele>2896</ele><time>2026-05-02T21:15:08Z</time></trkpt>
<trkpt lat="35.346513" lon="138.736471"><ele>2899</ele><time>2026-05-02T21:15:32Z</time></trkpt>
<trkpt lat="35.346644" lon="138.736566"><ele>2905</ele><time>2026-05-02T21:15:57Z</time></trkpt>
<trkpt lat="35.346661" lon="138.736568"><ele>2905</ele><time>2026-05-02T21:16:15Z</time></trkpt>
<trkpt lat="35.346662" lon="138.736565"><ele>2905</ele><time>2026-05-02T21:16:35Z</time></trkpt>
<trkpt lat="35.346697" lon="138.736351"><ele>2910</ele><time>2026-05-02T21:17:00Z</time></trkpt>
<trkpt lat="35.346724" lon="138.736285"><ele>2912</ele><time>2026-05-02T21:17:17Z</time></trkpt>
<trkpt lat="35.346749" lon="138.736207"><ele>2915</ele><time>2026-05-02T21:17:35Z</time></trkpt>
<trkpt lat="35.346744" lon="138.736186"><ele>2915</ele><time>2026-05-02T21:17:53Z</time></trkpt>
<trkpt lat="35.346769" lon="138.736097"><ele>2917</ele><time>2026-05-02T21:18:13Z</time></trkpt>
<trkpt lat="35.346821" lon="138.736032"><ele>2921</ele><time>2026-05-02T21:18:54Z</time></trkpt>
<trkpt lat="35.346917" lon="138.735959"><ele>2928</ele><time>2026-05-02T21:19:18Z</time></trkpt>
<trkpt lat="35.347019" lon="138.736063"><ele>2931</ele><time>2026-05-02T21:20:08Z</time></trkpt>
<trkpt lat="35.347133" lon="138.735991"><ele>2939</ele><time>2026-05-02T21:21:03Z</time></trkpt>
<trkpt lat="35.347141" lon="138.735974"><ele>2939</ele><time>2026-05-02T21:21:27Z</time></trkpt>
<trkpt lat="35.347182" lon="138.735925"><ele>2942</ele><time>2026-05-02T21:21:56Z</time></trkpt>
<trkpt lat="35.347286" lon="138.736064"><ele>2948</ele><time>2026-05-02T21:22:29Z</time></trkpt>
<trkpt lat="35.347356" lon="138.73604"><ele>2951</ele><time>2026-05-02T21:22:54Z</time></trkpt>
<trkpt lat="35.347366" lon="138.735951"><ele>2952</ele><time>2026-05-02T21:23:19Z</time></trkpt>
<trkpt lat="35.347419" lon="138.735886"><ele>2956</ele><time>2026-05-02T21:23:45Z</time></trkpt>
<trkpt lat="35.347453" lon="138.735915"><ele>2958</ele><time>2026-05-02T21:24:10Z</time></trkpt>
<trkpt lat="35.347503" lon="138.735987"><ele>2961</ele><time>2026-05-02T21:24:39Z</time></trkpt>
<trkpt lat="35.347557" lon="138.736056"><ele>2964</ele><time>2026-05-02T21:25:08Z</time></trkpt>
<trkpt lat="35.347657" lon="138.736067"><ele>2970</ele><time>2026-05-02T21:25:37Z</time></trkpt>
<trkpt lat="35.347658" lon="138.736067"><ele>2970</ele><time>2026-05-02T21:26:06Z</time></trkpt>
<trkpt lat="35.347761" lon="138.736109"><ele>2975</ele><time>2026-05-02T21:26:37Z</time></trkpt>
<trkpt lat="35.347864" lon="138.736085"><ele>2981</ele><time>2026-05-02T21:27:35Z</time></trkpt>
<trkpt lat="35.347884" lon="138.735958"><ele>2985</ele><time>2026-05-02T21:28:07Z</time></trkpt>
<trkpt lat="35.347907" lon="138.73575"><ele>2990</ele><time>2026-05-02T21:28:38Z</time></trkpt>
<trkpt lat="35.347966" lon="138.735745"><ele>2993</ele><time>2026-05-02T21:29:23Z</time></trkpt>
<trkpt lat="35.348081" lon="138.735818"><ele>2999</ele><time>2026-05-02T21:29:51Z</time></trkpt>
<trkpt lat="35.348138" lon="138.735798"><ele>3000</ele><time>2026-05-02T21:30:16Z</time></trkpt>
<trkpt lat="35.348203" lon="138.735715"><ele>3005</ele><time>2026-05-02T21:30:43Z</time></trkpt>
<trkpt lat="35.348203" lon="138.735715"><ele>3005</ele><time>2026-05-02T21:30:49Z</time></trkpt>
<trkpt lat="35.348271" lon="138.735615"><ele>3009</ele><time>2026-05-02T21:31:19Z</time></trkpt>
<trkpt lat="35.348296" lon="138.73563"><ele>3010</ele><time>2026-05-02T21:31:23Z</time></trkpt>
<trkpt lat="35.348315" lon="138.735872"><ele>3014</ele><time>2026-05-02T21:31:56Z</time></trkpt>
<trkpt lat="35.348395" lon="138.735966"><ele>3016</ele><time>2026-05-02T21:32:22Z</time></trkpt>
<trkpt lat="35.348395" lon="138.735969"><ele>3016</ele><time>2026-05-02T21:33:12Z</time></trkpt>
<trkpt lat="35.348508" lon="138.735769"><ele>3025</ele><time>2026-05-02T21:33:43Z</time></trkpt>
<trkpt lat="35.348514" lon="138.735673"><ele>3025</ele><time>2026-05-02T21:34:06Z</time></trkpt>
<trkpt lat="35.348589" lon="138.735617"><ele>3028</ele><time>2026-05-02T21:34:54Z</time></trkpt>
<trkpt lat="35.348599" lon="138.73577"><ele>3030</ele><time>2026-05-02T21:35:17Z</time></trkpt>
<trkpt lat="35.3486" lon="138.735771"><ele>3030</ele><time>2026-05-02T21:36:07Z</time></trkpt>
<trkpt lat="35.348604" lon="138.735737"><ele>3030</ele><time>2026-05-02T21:36:38Z</time></trkpt>
<trkpt lat="35.348591" lon="138.735629"><ele>3028</ele><time>2026-05-02T21:37:11Z</time></trkpt>
<trkpt lat="35.348572" lon="138.73554"><ele>3029</ele><time>2026-05-02T21:37:44Z</time></trkpt>
<trkpt lat="35.348615" lon="138.735344"><ele>3031</ele><time>2026-05-02T21:38:16Z</time></trkpt>
<trkpt lat="35.34869" lon="138.735083"><ele>3037</ele><time>2026-05-02T21:39:36Z</time></trkpt>
<trkpt lat="35.348714" lon="138.734969"><ele>3041</ele><time>2026-05-02T21:40:05Z</time></trkpt>
<trkpt lat="35.348738" lon="138.734846"><ele>3045</ele><time>2026-05-02T21:40:37Z</time></trkpt>
<trkpt lat="35.348783" lon="138.734718"><ele>3048</ele><time>2026-05-02T21:41:01Z</time></trkpt>
<trkpt lat="35.348781" lon="138.734708"><ele>3048</ele><time>2026-05-02T21:41:30Z</time></trkpt>
<trkpt lat="35.348781" lon="138.734708"><ele>3048</ele><time>2026-05-02T21:41:58Z</time></trkpt>
<trkpt lat="35.348878" lon="138.734796"><ele>3053</ele><time>2026-05-02T21:42:33Z</time></trkpt>
<trkpt lat="35.348928" lon="138.734856"><ele>3055</ele><time>2026-05-02T21:42:59Z</time></trkpt>
<trkpt lat="35.349018" lon="138.734905"><ele>3059</ele><time>2026-05-02T21:43:33Z</time></trkpt>
<trkpt lat="35.349136" lon="138.735051"><ele>3064</ele><time>2026-05-02T21:44:07Z</time></trkpt>
<trkpt lat="35.349136" lon="138.735051"><ele>3064</ele><time>2026-05-02T21:44:30Z</time></trkpt>
<trkpt lat="35.349251" lon="138.7352"><ele>3069</ele><time>2026-05-02T21:44:57Z</time></trkpt>
<trkpt lat="35.3493" lon="138.735296"><ele>3073</ele><time>2026-05-02T21:45:21Z</time></trkpt>
<trkpt lat="35.349305" lon="138.735301"><ele>3073</ele><time>2026-05-02T21:45:32Z</time></trkpt>
<trkpt lat="35.349343" lon="138.73543"><ele>3077</ele><time>2026-05-02T21:45:58Z</time></trkpt>
<trkpt lat="35.349371" lon="138.735476"><ele>3079</ele><time>2026-05-02T21:46:26Z</time></trkpt>
<trkpt lat="35.349371" lon="138.735476"><ele>3079</ele><time>2026-05-02T21:46:51Z</time></trkpt>
<trkpt lat="35.349508" lon="138.735506"><ele>3086</ele><time>2026-05-02T21:47:24Z</time></trkpt>
<trkpt lat="35.349605" lon="138.735635"><ele>3090</ele><time>2026-05-02T21:47:58Z</time></trkpt>
<trkpt lat="35.349605" lon="138.735635"><ele>3090</ele><time>2026-05-02T21:48:00Z</time></trkpt>
<trkpt lat="35.349665" lon="138.73564"><ele>3094</ele><time>2026-05-02T21:48:30Z</time></trkpt>
<trkpt lat="35.349701" lon="138.735643"><ele>3095</ele><time>2026-05-02T21:49:00Z</time></trkpt>
<trkpt lat="35.349771" lon="138.735495"><ele>3100</ele><time>2026-05-02T21:49:32Z</time></trkpt>
<trkpt lat="35.349798" lon="138.735381"><ele>3104</ele><time>2026-05-02T21:50:04Z</time></trkpt>
<trkpt lat="35.349823" lon="138.73531"><ele>3108</ele><time>2026-05-02T21:50:36Z</time></trkpt>
<trkpt lat="35.349823" lon="138.73531"><ele>3108</ele><time>2026-05-02T21:50:56Z</time></trkpt>
<trkpt lat="35.349823" lon="138.73531"><ele>3108</ele><time>2026-05-02T21:51:25Z</time></trkpt>
<trkpt lat="35.349971" lon="138.735328"><ele>3116</ele><time>2026-05-02T21:52:04Z</time></trkpt>
<trkpt lat="35.349971" lon="138.735328"><ele>3116</ele><time>2026-05-02T21:52:14Z</time></trkpt>
<trkpt lat="35.35007" lon="138.73535"><ele>3121</ele><time>2026-05-02T21:52:49Z</time></trkpt>
<trkpt lat="35.35007" lon="138.73535"><ele>3121</ele><time>2026-05-02T21:53:22Z</time></trkpt>
<trkpt lat="35.350131" lon="138.735448"><ele>3125</ele><time>2026-05-02T21:54:00Z</time></trkpt>
<trkpt lat="35.350226" lon="138.735473"><ele>3130</ele><time>2026-05-02T21:54:37Z</time></trkpt>
<trkpt lat="35.350313" lon="138.735515"><ele>3135</ele><time>2026-05-02T21:54:59Z</time></trkpt>
<trkpt lat="35.35032" lon="138.73552"><ele>3135</ele><time>2026-05-02T21:55:37Z</time></trkpt>
<trkpt lat="35.350421" lon="138.735536"><ele>3138</ele><time>2026-05-02T21:56:13Z</time></trkpt>
<trkpt lat="35.350506" lon="138.735468"><ele>3145</ele><time>2026-05-02T21:56:31Z</time></trkpt>
<trkpt lat="35.350588" lon="138.735526"><ele>3148</ele><time>2026-05-02T21:57:14Z</time></trkpt>
<trkpt lat="35.350673" lon="138.73556"><ele>3155</ele><time>2026-05-02T21:57:55Z</time></trkpt>
<trkpt lat="35.350726" lon="138.735655"><ele>3158</ele><time>2026-05-02T21:58:37Z</time></trkpt>
<trkpt lat="35.350726" lon="138.735655"><ele>3158</ele><time>2026-05-02T21:58:44Z</time></trkpt>
<trkpt lat="35.350751" lon="138.735568"><ele>3162</ele><time>2026-05-02T21:59:33Z</time></trkpt>
<trkpt lat="35.350751" lon="138.735568"><ele>3162</ele><time>2026-05-02T21:59:56Z</time></trkpt>
<trkpt lat="35.350983" lon="138.735866"><ele>3171</ele><time>2026-05-02T22:00:44Z</time></trkpt>
<trkpt lat="35.351001" lon="138.735883"><ele>3171</ele><time>2026-05-02T22:01:17Z</time></trkpt>
<trkpt lat="35.351093" lon="138.735866"><ele>3176</ele><time>2026-05-02T22:01:51Z</time></trkpt>
<trkpt lat="35.351123" lon="138.735735"><ele>3182</ele><time>2026-05-02T22:02:27Z</time></trkpt>
<trkpt lat="35.351123" lon="138.735735"><ele>3182</ele><time>2026-05-02T22:02:31Z</time></trkpt>
<trkpt lat="35.351133" lon="138.735685"><ele>3183</ele><time>2026-05-02T22:03:10Z</time></trkpt>
<trkpt lat="35.351186" lon="138.735611"><ele>3186</ele><time>2026-05-02T22:03:47Z</time></trkpt>
<trkpt lat="35.35126" lon="138.73558"><ele>3194</ele><time>2026-05-02T22:04:19Z</time></trkpt>
<trkpt lat="35.351266" lon="138.735588"><ele>3194</ele><time>2026-05-02T22:05:02Z</time></trkpt>
<trkpt lat="35.351346" lon="138.735531"><ele>3199</ele><time>2026-05-02T22:05:39Z</time></trkpt>
<trkpt lat="35.351443" lon="138.735521"><ele>3207</ele><time>2026-05-02T22:06:25Z</time></trkpt>
<trkpt lat="35.351443" lon="138.735521"><ele>3207</ele><time>2026-05-02T22:06:44Z</time></trkpt>
<trkpt lat="35.351531" lon="138.735506"><ele>3210</ele><time>2026-05-02T22:07:18Z</time></trkpt>
<trkpt lat="35.351563" lon="138.735453"><ele>3212</ele><time>2026-05-02T22:07:49Z</time></trkpt>
<trkpt lat="35.351558" lon="138.735376"><ele>3214</ele><time>2026-05-02T22:08:40Z</time></trkpt>
<trkpt lat="35.351575" lon="138.735311"><ele>3219</ele><time>2026-05-02T22:09:19Z</time></trkpt>
<trkpt lat="35.351568" lon="138.735131"><ele>3221</ele><time>2026-05-02T22:10:11Z</time></trkpt>
<trkpt lat="35.351568" lon="138.735131"><ele>3221</ele><time>2026-05-02T22:10:52Z</time></trkpt>
<trkpt lat="35.351588" lon="138.735025"><ele>3225</ele><time>2026-05-02T22:13:24Z</time></trkpt>
<trkpt lat="35.351588" lon="138.735025"><ele>3225</ele><time>2026-05-02T22:14:20Z</time></trkpt>
<trkpt lat="35.351568" lon="138.735088"><ele>3223</ele><time>2026-05-02T22:16:51Z</time></trkpt>
<trkpt lat="35.351568" lon="138.735088"><ele>3223</ele><time>2026-05-02T22:17:13Z</time></trkpt>
<trkpt lat="35.351683" lon="138.735066"><ele>3230</ele><time>2026-05-02T22:18:11Z</time></trkpt>
<trkpt lat="35.351663" lon="138.735013"><ele>3229</ele><time>2026-05-02T22:20:21Z</time></trkpt>
<trkpt lat="35.351605" lon="138.735056"><ele>3225</ele><time>2026-05-02T22:21:23Z</time></trkpt>
<trkpt lat="35.351593" lon="138.735133"><ele>3223</ele><time>2026-05-02T22:22:48Z</time></trkpt>
<trkpt lat="35.35162" lon="138.73528"><ele>3222</ele><time>2026-05-02T22:23:46Z</time></trkpt>
<trkpt lat="35.35162" lon="138.73528"><ele>3222</ele><time>2026-05-02T22:24:01Z</time></trkpt>
<trkpt lat="35.35162" lon="138.73528"><ele>3222</ele><time>2026-05-02T22:25:01Z</time></trkpt>
<trkpt lat="35.35162" lon="138.73528"><ele>3222</ele><time>2026-05-02T22:25:53Z</time></trkpt>
<trkpt lat="35.35162" lon="138.73528"><ele>3222</ele><time>2026-05-02T22:26:53Z</time></trkpt>
<trkpt lat="35.35162" lon="138.73528"><ele>3222</ele><time>2026-05-02T22:27:15Z</time></trkpt>
<trkpt lat="35.351713" lon="138.73543"><ele>3224</ele><time>2026-05-02T22:28:15Z</time></trkpt>
<trkpt lat="35.3518" lon="138.735376"><ele>3227</ele><time>2026-05-02T22:28:57Z</time></trkpt>
<trkpt lat="35.351905" lon="138.735331"><ele>3234</ele><time>2026-05-02T22:29:52Z</time></trkpt>
<trkpt lat="35.351933" lon="138.735236"><ele>3237</ele><time>2026-05-02T22:30:17Z</time></trkpt>
<trkpt lat="35.351991" lon="138.735143"><ele>3242</ele><time>2026-05-02T22:31:11Z</time></trkpt>
<trkpt lat="35.351991" lon="138.735143"><ele>3242</ele><time>2026-05-02T22:31:59Z</time></trkpt>
<trkpt lat="35.352035" lon="138.735036"><ele>3246</ele><time>2026-05-02T22:32:17Z</time></trkpt>
<trkpt lat="35.352148" lon="138.735001"><ele>3251</ele><time>2026-05-02T22:33:15Z</time></trkpt>
<trkpt lat="35.352253" lon="138.735006"><ele>3258</ele><time>2026-05-02T22:34:14Z</time></trkpt>
<trkpt lat="35.352253" lon="138.735006"><ele>3258</ele><time>2026-05-02T22:35:12Z</time></trkpt>
<trkpt lat="35.352331" lon="138.734943"><ele>3262</ele><time>2026-05-02T22:36:03Z</time></trkpt>
<trkpt lat="35.352428" lon="138.734921"><ele>3266</ele><time>2026-05-02T22:37:04Z</time></trkpt>
<trkpt lat="35.352618" lon="138.734895"><ele>3274</ele><time>2026-05-02T22:38:06Z</time></trkpt>
<trkpt lat="35.352618" lon="138.734895"><ele>3274</ele><time>2026-05-02T22:38:26Z</time></trkpt>
<trkpt lat="35.352715" lon="138.734895"><ele>3278</ele><time>2026-05-02T22:39:22Z</time></trkpt>
<trkpt lat="35.352715" lon="138.734895"><ele>3278</ele><time>2026-05-02T22:39:43Z</time></trkpt>
<trkpt lat="35.352819" lon="138.734888"><ele>3282</ele><time>2026-05-02T22:40:42Z</time></trkpt>
<trkpt lat="35.352881" lon="138.73482"><ele>3286</ele><time>2026-05-02T22:41:39Z</time></trkpt>
<trkpt lat="35.352905" lon="138.734658"><ele>3293</ele><time>2026-05-02T22:42:38Z</time></trkpt>
<trkpt lat="35.353" lon="138.734641"><ele>3295</ele><time>2026-05-02T22:43:36Z</time></trkpt>
<trkpt lat="35.353" lon="138.734641"><ele>3295</ele><time>2026-05-02T22:44:15Z</time></trkpt>
<trkpt lat="35.353023" lon="138.734525"><ele>3301</ele><time>2026-05-02T22:45:15Z</time></trkpt>
<trkpt lat="35.353116" lon="138.734518"><ele>3305</ele><time>2026-05-02T22:45:55Z</time></trkpt>
<trkpt lat="35.35312" lon="138.734518"><ele>3305</ele><time>2026-05-02T22:46:24Z</time></trkpt>
<trkpt lat="35.353215" lon="138.73447"><ele>3310</ele><time>2026-05-02T22:47:24Z</time></trkpt>
<trkpt lat="35.353215" lon="138.73447"><ele>3310</ele><time>2026-05-02T22:48:25Z</time></trkpt>
<trkpt lat="35.353246" lon="138.734355"><ele>3318</ele><time>2026-05-02T22:49:26Z</time></trkpt>
<trkpt lat="35.353246" lon="138.734355"><ele>3318</ele><time>2026-05-02T22:49:28Z</time></trkpt>
<trkpt lat="35.353338" lon="138.734346"><ele>3320</ele><time>2026-05-02T22:50:28Z</time></trkpt>
<trkpt lat="35.353338" lon="138.734346"><ele>3320</ele><time>2026-05-02T22:50:47Z</time></trkpt>
<trkpt lat="35.353453" lon="138.734171"><ele>3333</ele><time>2026-05-02T22:53:34Z</time></trkpt>
<trkpt lat="35.353453" lon="138.734171"><ele>3333</ele><time>2026-05-02T22:53:44Z</time></trkpt>
<trkpt lat="35.353536" lon="138.734128"><ele>3337</ele><time>2026-05-02T22:54:44Z</time></trkpt>
<trkpt lat="35.353621" lon="138.734061"><ele>3341</ele><time>2026-05-02T22:55:32Z</time></trkpt>
<trkpt lat="35.353621" lon="138.734061"><ele>3341</ele><time>2026-05-02T22:56:26Z</time></trkpt>
<trkpt lat="35.353803" lon="138.734008"><ele>3349</ele><time>2026-05-02T22:57:27Z</time></trkpt>
<trkpt lat="35.353803" lon="138.734008"><ele>3349</ele><time>2026-05-02T22:58:00Z</time></trkpt>
<trkpt lat="35.35383" lon="138.733888"><ele>3354</ele><time>2026-05-02T22:58:55Z</time></trkpt>
<trkpt lat="35.35388" lon="138.7338"><ele>3359</ele><time>2026-05-02T22:59:50Z</time></trkpt>
<trkpt lat="35.35388" lon="138.7338"><ele>3359</ele><time>2026-05-02T23:00:00Z</time></trkpt>
<trkpt lat="35.353968" lon="138.733769"><ele>3362</ele><time>2026-05-02T23:00:59Z</time></trkpt>
<trkpt lat="35.354158" lon="138.733636"><ele>3373</ele><time>2026-05-02T23:04:00Z</time></trkpt>
<trkpt lat="35.35418" lon="138.733518"><ele>3377</ele><time>2026-05-02T23:04:55Z</time></trkpt>
<trkpt lat="35.354181" lon="138.733517"><ele>3377</ele><time>2026-05-02T23:05:55Z</time></trkpt>
<trkpt lat="35.354259" lon="138.733444"><ele>3382</ele><time>2026-05-02T23:06:55Z</time></trkpt>
<trkpt lat="35.354351" lon="138.733382"><ele>3388</ele><time>2026-05-02T23:07:56Z</time></trkpt>
<trkpt lat="35.354352" lon="138.733382"><ele>3388</ele><time>2026-05-02T23:08:52Z</time></trkpt>
<trkpt lat="35.354426" lon="138.733315"><ele>3393</ele><time>2026-05-02T23:09:53Z</time></trkpt>
<trkpt lat="35.354537" lon="138.733265"><ele>3397</ele><time>2026-05-02T23:10:54Z</time></trkpt>
<trkpt lat="35.354533" lon="138.73308"><ele>3404</ele><time>2026-05-02T23:11:59Z</time></trkpt>
<trkpt lat="35.354533" lon="138.73308"><ele>3404</ele><time>2026-05-02T23:12:48Z</time></trkpt>
<trkpt lat="35.354533" lon="138.73308"><ele>3404</ele><time>2026-05-02T23:13:28Z</time></trkpt>
<trkpt lat="35.354533" lon="138.73308"><ele>3404</ele><time>2026-05-02T23:14:29Z</time></trkpt>
<trkpt lat="35.354533" lon="138.73308"><ele>3404</ele><time>2026-05-02T23:15:08Z</time></trkpt>
<trkpt lat="35.354566" lon="138.733115"><ele>3404</ele><time>2026-05-02T23:16:01Z</time></trkpt>
<trkpt lat="35.354653" lon="138.73306"><ele>3407</ele><time>2026-05-02T23:17:01Z</time></trkpt>
<trkpt lat="35.354718" lon="138.732971"><ele>3411</ele><time>2026-05-02T23:17:58Z</time></trkpt>
<trkpt lat="35.354798" lon="138.732925"><ele>3414</ele><time>2026-05-02T23:18:58Z</time></trkpt>
<trkpt lat="35.354798" lon="138.732925"><ele>3414</ele><time>2026-05-02T23:19:46Z</time></trkpt>
<trkpt lat="35.354884" lon="138.732877"><ele>3416</ele><time>2026-05-02T23:20:47Z</time></trkpt>
<trkpt lat="35.354942" lon="138.732786"><ele>3421</ele><time>2026-05-02T23:21:48Z</time></trkpt>
<trkpt lat="35.354942" lon="138.732786"><ele>3421</ele><time>2026-05-02T23:22:49Z</time></trkpt>
<trkpt lat="35.355008" lon="138.732714"><ele>3427</ele><time>2026-05-02T23:23:50Z</time></trkpt>
<trkpt lat="35.355011" lon="138.732713"><ele>3427</ele><time>2026-05-02T23:24:50Z</time></trkpt>
<trkpt lat="35.35506" lon="138.732623"><ele>3434</ele><time>2026-05-02T23:25:05Z</time></trkpt>
<trkpt lat="35.355155" lon="138.73255"><ele>3443</ele><time>2026-05-02T23:26:06Z</time></trkpt>
<trkpt lat="35.355155" lon="138.73255"><ele>3443</ele><time>2026-05-02T23:26:20Z</time></trkpt>
<trkpt lat="35.355155" lon="138.73255"><ele>3443</ele><time>2026-05-02T23:27:20Z</time></trkpt>
<trkpt lat="35.355155" lon="138.73255"><ele>3443</ele><time>2026-05-02T23:27:31Z</time></trkpt>
<trkpt lat="35.355236" lon="138.732478"><ele>3447</ele><time>2026-05-02T23:28:31Z</time></trkpt>
<trkpt lat="35.355302" lon="138.732396"><ele>3455</ele><time>2026-05-02T23:29:31Z</time></trkpt>
<trkpt lat="35.355461" lon="138.732121"><ele>3471</ele><time>2026-05-02T23:33:03Z</time></trkpt>
<trkpt lat="35.355467" lon="138.732131"><ele>3471</ele><time>2026-05-02T23:33:46Z</time></trkpt>
<trkpt lat="35.355553" lon="138.732098"><ele>3474</ele><time>2026-05-02T23:34:26Z</time></trkpt>
<trkpt lat="35.355553" lon="138.732098"><ele>3474</ele><time>2026-05-02T23:34:47Z</time></trkpt>
<trkpt lat="35.355649" lon="138.732075"><ele>3479</ele><time>2026-05-02T23:35:36Z</time></trkpt>
<trkpt lat="35.355651" lon="138.732073"><ele>3479</ele><time>2026-05-02T23:36:25Z</time></trkpt>
<trkpt lat="35.355703" lon="138.731988"><ele>3485</ele><time>2026-05-02T23:37:00Z</time></trkpt>
<trkpt lat="35.355702" lon="138.731987"><ele>3485</ele><time>2026-05-02T23:37:52Z</time></trkpt>
<trkpt lat="35.355776" lon="138.731903"><ele>3490</ele><time>2026-05-02T23:38:40Z</time></trkpt>
<trkpt lat="35.35586" lon="138.731858"><ele>3494</ele><time>2026-05-02T23:39:09Z</time></trkpt>
<trkpt lat="35.35586" lon="138.731857"><ele>3494</ele><time>2026-05-02T23:40:03Z</time></trkpt>
<trkpt lat="35.355941" lon="138.731797"><ele>3498</ele><time>2026-05-02T23:41:00Z</time></trkpt>
<trkpt lat="35.355941" lon="138.731797"><ele>3498</ele><time>2026-05-02T23:41:57Z</time></trkpt>
<trkpt lat="35.356016" lon="138.73173"><ele>3503</ele><time>2026-05-02T23:42:51Z</time></trkpt>
<trkpt lat="35.356101" lon="138.731684"><ele>3509</ele><time>2026-05-02T23:43:51Z</time></trkpt>
<trkpt lat="35.356106" lon="138.73165"><ele>3509</ele><time>2026-05-02T23:44:54Z</time></trkpt>
<trkpt lat="35.356106" lon="138.73165"><ele>3509</ele><time>2026-05-02T23:45:12Z</time></trkpt>
<trkpt lat="35.356192" lon="138.731603"><ele>3515</ele><time>2026-05-02T23:46:13Z</time></trkpt>
<trkpt lat="35.356193" lon="138.731603"><ele>3515</ele><time>2026-05-02T23:47:04Z</time></trkpt>
<trkpt lat="35.356228" lon="138.731495"><ele>3520</ele><time>2026-05-02T23:48:04Z</time></trkpt>
<trkpt lat="35.356228" lon="138.731495"><ele>3520</ele><time>2026-05-02T23:48:30Z</time></trkpt>
<trkpt lat="35.356315" lon="138.731286"><ele>3528</ele><time>2026-05-02T23:49:25Z</time></trkpt>
<trkpt lat="35.356316" lon="138.73128"><ele>3528</ele><time>2026-05-02T23:50:14Z</time></trkpt>
<trkpt lat="35.356403" lon="138.73122"><ele>3534</ele><time>2026-05-02T23:51:09Z</time></trkpt>
<trkpt lat="35.356403" lon="138.73122"><ele>3534</ele><time>2026-05-02T23:51:18Z</time></trkpt>
<trkpt lat="35.356412" lon="138.7312"><ele>3534</ele><time>2026-05-02T23:52:16Z</time></trkpt>
<trkpt lat="35.356493" lon="138.731158"><ele>3539</ele><time>2026-05-02T23:53:17Z</time></trkpt>
<trkpt lat="35.356493" lon="138.731158"><ele>3539</ele><time>2026-05-02T23:54:19Z</time></trkpt>
<trkpt lat="35.356583" lon="138.731201"><ele>3545</ele><time>2026-05-02T23:55:11Z</time></trkpt>
<trkpt lat="35.35661" lon="138.73125"><ele>3544</ele><time>2026-05-02T23:55:31Z</time></trkpt>
<trkpt lat="35.35661" lon="138.73125"><ele>3544</ele><time>2026-05-02T23:56:15Z</time></trkpt>
<trkpt lat="35.35661" lon="138.73125"><ele>3544</ele><time>2026-05-02T23:57:16Z</time></trkpt>
<trkpt lat="35.35661" lon="138.73125"><ele>3544</ele><time>2026-05-02T23:57:18Z</time></trkpt>
<trkpt lat="35.35661" lon="138.73125"><ele>3544</ele><time>2026-05-02T23:58:18Z</time></trkpt>
<trkpt lat="35.356616" lon="138.731246"><ele>3545</ele><time>2026-05-02T23:59:21Z</time></trkpt>
<trkpt lat="35.3566" lon="138.731221"><ele>3545</ele><time>2026-05-03T00:00:30Z</time></trkpt>
<trkpt lat="35.3566" lon="138.731221"><ele>3545</ele><time>2026-05-03T00:00:46Z</time></trkpt>
<trkpt lat="35.3566" lon="138.731221"><ele>3545</ele><time>2026-05-03T00:01:46Z</time></trkpt>
<trkpt lat="35.3566" lon="138.731221"><ele>3545</ele><time>2026-05-03T00:01:59Z</time></trkpt>
<trkpt lat="35.356703" lon="138.731231"><ele>3545</ele><time>2026-05-03T00:03:00Z</time></trkpt>
<trkpt lat="35.356753" lon="138.731245"><ele>3545</ele><time>2026-05-03T00:04:00Z</time></trkpt>
<trkpt lat="35.356863" lon="138.731213"><ele>3552</ele><time>2026-05-03T00:04:51Z</time></trkpt>
<trkpt lat="35.356953" lon="138.731201"><ele>3554</ele><time>2026-05-03T00:05:51Z</time></trkpt>
<trkpt lat="35.356953" lon="138.731201"><ele>3554</ele><time>2026-05-03T00:05:53Z</time></trkpt>
<trkpt lat="35.357043" lon="138.731151"><ele>3560</ele><time>2026-05-03T00:06:54Z</time></trkpt>
<trkpt lat="35.357043" lon="138.731151"><ele>3560</ele><time>2026-05-03T00:07:38Z</time></trkpt>
<trkpt lat="35.357145" lon="138.731138"><ele>3566</ele><time>2026-05-03T00:08:39Z</time></trkpt>
<trkpt lat="35.357145" lon="138.731138"><ele>3566</ele><time>2026-05-03T00:08:42Z</time></trkpt>
<trkpt lat="35.357231" lon="138.731081"><ele>3571</ele><time>2026-05-03T00:09:42Z</time></trkpt>
<trkpt lat="35.357231" lon="138.731081"><ele>3571</ele><time>2026-05-03T00:10:34Z</time></trkpt>
<trkpt lat="35.357326" lon="138.731088"><ele>3576</ele><time>2026-05-03T00:11:35Z</time></trkpt>
<trkpt lat="35.357425" lon="138.731106"><ele>3581</ele><time>2026-05-03T00:12:36Z</time></trkpt>
<trkpt lat="35.357425" lon="138.731106"><ele>3581</ele><time>2026-05-03T00:13:00Z</time></trkpt>
<trkpt lat="35.357595" lon="138.731128"><ele>3591</ele><time>2026-05-03T00:14:00Z</time></trkpt>
<trkpt lat="35.357694" lon="138.73114"><ele>3597</ele><time>2026-05-03T00:14:53Z</time></trkpt>
<trkpt lat="35.357695" lon="138.73114"><ele>3597</ele><time>2026-05-03T00:15:47Z</time></trkpt>
<trkpt lat="35.357755" lon="138.731171"><ele>3598</ele><time>2026-05-03T00:16:43Z</time></trkpt>
<trkpt lat="35.357855" lon="138.731191"><ele>3605</ele><time>2026-05-03T00:17:40Z</time></trkpt>
<trkpt lat="35.357855" lon="138.731191"><ele>3605</ele><time>2026-05-03T00:18:22Z</time></trkpt>
<trkpt lat="35.357948" lon="138.73123"><ele>3610</ele><time>2026-05-03T00:19:22Z</time></trkpt>
<trkpt lat="35.358063" lon="138.731335"><ele>3615</ele><time>2026-05-03T00:20:21Z</time></trkpt>
<trkpt lat="35.358085" lon="138.73136"><ele>3618</ele><time>2026-05-03T00:21:14Z</time></trkpt>
<trkpt lat="35.358171" lon="138.731326"><ele>3622</ele><time>2026-05-03T00:22:10Z</time></trkpt>
<trkpt lat="35.358173" lon="138.731321"><ele>3622</ele><time>2026-05-03T00:22:41Z</time></trkpt>
<trkpt lat="35.358265" lon="138.73128"><ele>3630</ele><time>2026-05-03T00:23:41Z</time></trkpt>
<trkpt lat="35.358265" lon="138.73128"><ele>3630</ele><time>2026-05-03T00:24:08Z</time></trkpt>
<trkpt lat="35.358355" lon="138.731296"><ele>3634</ele><time>2026-05-03T00:25:09Z</time></trkpt>
<trkpt lat="35.358355" lon="138.731296"><ele>3634</ele><time>2026-05-03T00:26:14Z</time></trkpt>
<trkpt lat="35.358355" lon="138.731296"><ele>3634</ele><time>2026-05-03T00:26:36Z</time></trkpt>
<trkpt lat="35.358445" lon="138.73125"><ele>3643</ele><time>2026-05-03T00:27:36Z</time></trkpt>
<trkpt lat="35.358445" lon="138.73125"><ele>3643</ele><time>2026-05-03T00:27:58Z</time></trkpt>
<trkpt lat="35.358576" lon="138.731173"><ele>3653</ele><time>2026-05-03T00:29:04Z</time></trkpt>
<trkpt lat="35.358576" lon="138.731173"><ele>3653</ele><time>2026-05-03T00:29:59Z</time></trkpt>
<trkpt lat="35.358671" lon="138.731156"><ele>3657</ele><time>2026-05-03T00:30:31Z</time></trkpt>
<trkpt lat="35.358671" lon="138.731156"><ele>3657</ele><time>2026-05-03T00:31:19Z</time></trkpt>
<trkpt lat="35.358768" lon="138.731138"><ele>3664</ele><time>2026-05-03T00:32:20Z</time></trkpt>
<trkpt lat="35.358795" lon="138.73116"><ele>3667</ele><time>2026-05-03T00:33:16Z</time></trkpt>
<trkpt lat="35.358795" lon="138.73116"><ele>3667</ele><time>2026-05-03T00:34:19Z</time></trkpt>
<trkpt lat="35.358795" lon="138.73116"><ele>3667</ele><time>2026-05-03T00:34:42Z</time></trkpt>
<trkpt lat="35.358956" lon="138.731263"><ele>3676</ele><time>2026-05-03T00:35:43Z</time></trkpt>
<trkpt lat="35.35896" lon="138.731271"><ele>3679</ele><time>2026-05-03T00:36:29Z</time></trkpt>
<trkpt lat="35.35903" lon="138.73129"><ele>3683</ele><time>2026-05-03T00:37:23Z</time></trkpt>
<trkpt lat="35.35903" lon="138.73129"><ele>3683</ele><time>2026-05-03T00:38:19Z</time></trkpt>
<trkpt lat="35.359105" lon="138.731193"><ele>3689</ele><time>2026-05-03T00:38:57Z</time></trkpt>
<trkpt lat="35.359105" lon="138.731193"><ele>3689</ele><time>2026-05-03T00:39:48Z</time></trkpt>
<trkpt lat="35.359198" lon="138.731205"><ele>3694</ele><time>2026-05-03T00:40:44Z</time></trkpt>
<trkpt lat="35.359276" lon="138.731066"><ele>3702</ele><time>2026-05-03T00:41:44Z</time></trkpt>
<trkpt lat="35.359361" lon="138.73112"><ele>3705</ele><time>2026-05-03T00:42:23Z</time></trkpt>
<trkpt lat="35.359401" lon="138.731155"><ele>3707</ele><time>2026-05-03T00:43:23Z</time></trkpt>
<trkpt lat="35.359531" lon="138.731145"><ele>3712</ele><time>2026-05-03T00:44:15Z</time></trkpt>
<trkpt lat="35.359503" lon="138.731155"><ele>3712</ele><time>2026-05-03T00:46:17Z</time></trkpt>
<trkpt lat="35.359503" lon="138.731155"><ele>3712</ele><time>2026-05-03T00:47:18Z</time></trkpt>
<trkpt lat="35.359503" lon="138.731155"><ele>3712</ele><time>2026-05-03T00:47:38Z</time></trkpt>
<trkpt lat="35.359503" lon="138.731155"><ele>3712</ele><time>2026-05-03T00:48:39Z</time></trkpt>
<trkpt lat="35.359503" lon="138.731155"><ele>3712</ele><time>2026-05-03T00:49:43Z</time></trkpt>
<trkpt lat="35.359503" lon="138.731155"><ele>3712</ele><time>2026-05-03T00:50:43Z</time></trkpt>
<trkpt lat="35.359503" lon="138.731155"><ele>3712</ele><time>2026-05-03T00:51:43Z</time></trkpt>
<trkpt lat="35.359503" lon="138.731155"><ele>3712</ele><time>2026-05-03T00:52:34Z</time></trkpt>
<trkpt lat="35.359503" lon="138.731155"><ele>3712</ele><time>2026-05-03T00:53:35Z</time></trkpt>
<trkpt lat="35.359503" lon="138.731155"><ele>3712</ele><time>2026-05-03T00:54:04Z</time></trkpt>
<trkpt lat="35.359508" lon="138.731151"><ele>3712</ele><time>2026-05-03T00:56:05Z</time></trkpt>
<trkpt lat="35.359508" lon="138.731151"><ele>3712</ele><time>2026-05-03T00:56:57Z</time></trkpt>
<trkpt lat="35.359528" lon="138.731175"><ele>3712</ele><time>2026-05-03T00:57:45Z</time></trkpt>
<trkpt lat="35.359528" lon="138.731175"><ele>3712</ele><time>2026-05-03T00:58:44Z</time></trkpt>
<trkpt lat="35.359528" lon="138.731175"><ele>3712</ele><time>2026-05-03T00:59:11Z</time></trkpt>
<trkpt lat="35.359486" lon="138.731175"><ele>3712</ele><time>2026-05-03T01:00:50Z</time></trkpt>
<trkpt lat="35.359485" lon="138.731175"><ele>3712</ele><time>2026-05-03T01:02:28Z</time></trkpt>
<trkpt lat="35.359433" lon="138.731241"><ele>3709</ele><time>2026-05-03T01:03:28Z</time></trkpt>
<trkpt lat="35.359409" lon="138.731258"><ele>3708</ele><time>2026-05-03T01:04:29Z</time></trkpt>
<trkpt lat="35.359204" lon="138.731142"><ele>3697</ele><time>2026-05-03T01:05:30Z</time></trkpt>
<trkpt lat="35.359066" lon="138.731205"><ele>3686</ele><time>2026-05-03T01:06:21Z</time></trkpt>
<trkpt lat="35.358851" lon="138.731168"><ele>3672</ele><time>2026-05-03T01:07:06Z</time></trkpt>
<trkpt lat="35.358742" lon="138.731097"><ele>3662</ele><time>2026-05-03T01:07:41Z</time></trkpt>
<trkpt lat="35.35857" lon="138.731073"><ele>3651</ele><time>2026-05-03T01:08:17Z</time></trkpt>
<trkpt lat="35.358442" lon="138.731073"><ele>3645</ele><time>2026-05-03T01:08:45Z</time></trkpt>
<trkpt lat="35.358317" lon="138.731086"><ele>3634</ele><time>2026-05-03T01:09:12Z</time></trkpt>
<trkpt lat="35.35831" lon="138.731091"><ele>3634</ele><time>2026-05-03T01:09:39Z</time></trkpt>
<trkpt lat="35.358248" lon="138.731097"><ele>3631</ele><time>2026-05-03T01:10:10Z</time></trkpt>
<trkpt lat="35.358109" lon="138.731146"><ele>3621</ele><time>2026-05-03T01:10:40Z</time></trkpt>
<trkpt lat="35.357999" lon="138.731159"><ele>3613</ele><time>2026-05-03T01:11:04Z</time></trkpt>
<trkpt lat="35.357914" lon="138.731189"><ele>3609</ele><time>2026-05-03T01:11:29Z</time></trkpt>
<trkpt lat="35.357806" lon="138.731206"><ele>3602</ele><time>2026-05-03T01:11:54Z</time></trkpt>
<trkpt lat="35.357688" lon="138.731251"><ele>3592</ele><time>2026-05-03T01:12:19Z</time></trkpt>
<trkpt lat="35.357569" lon="138.731282"><ele>3585</ele><time>2026-05-03T01:12:49Z</time></trkpt>
<trkpt lat="35.357514" lon="138.731297"><ele>3580</ele><time>2026-05-03T01:13:14Z</time></trkpt>
<trkpt lat="35.357438" lon="138.731292"><ele>3576</ele><time>2026-05-03T01:13:42Z</time></trkpt>
<trkpt lat="35.357281" lon="138.731347"><ele>3568</ele><time>2026-05-03T01:14:10Z</time></trkpt>
<trkpt lat="35.357194" lon="138.731347"><ele>3562</ele><time>2026-05-03T01:14:30Z</time></trkpt>
<trkpt lat="35.357086" lon="138.731362"><ele>3557</ele><time>2026-05-03T01:14:50Z</time></trkpt>
<trkpt lat="35.357081" lon="138.731359"><ele>3557</ele><time>2026-05-03T01:15:11Z</time></trkpt>
<trkpt lat="35.35699" lon="138.73144"><ele>3550</ele><time>2026-05-03T01:15:34Z</time></trkpt>
<trkpt lat="35.356908" lon="138.731493"><ele>3545</ele><time>2026-05-03T01:15:58Z</time></trkpt>
<trkpt lat="35.356909" lon="138.731495"><ele>3545</ele><time>2026-05-03T01:16:22Z</time></trkpt>
<trkpt lat="35.356911" lon="138.731496"><ele>3545</ele><time>2026-05-03T01:16:48Z</time></trkpt>
<trkpt lat="35.356908" lon="138.731498"><ele>3545</ele><time>2026-05-03T01:17:43Z</time></trkpt>
<trkpt lat="35.356908" lon="138.731498"><ele>3545</ele><time>2026-05-03T01:18:18Z</time></trkpt>
<trkpt lat="35.356908" lon="138.731498"><ele>3545</ele><time>2026-05-03T01:18:44Z</time></trkpt>
<trkpt lat="35.35675" lon="138.731625"><ele>3533</ele><time>2026-05-03T01:19:24Z</time></trkpt>
<trkpt lat="35.356664" lon="138.731799"><ele>3525</ele><time>2026-05-03T01:19:57Z</time></trkpt>
<trkpt lat="35.356572" lon="138.731933"><ele>3516</ele><time>2026-05-03T01:20:26Z</time></trkpt>
<trkpt lat="35.356505" lon="138.732057"><ele>3509</ele><time>2026-05-03T01:20:46Z</time></trkpt>
<trkpt lat="35.356421" lon="138.732149"><ele>3503</ele><time>2026-05-03T01:21:06Z</time></trkpt>
<trkpt lat="35.356336" lon="138.732225"><ele>3498</ele><time>2026-05-03T01:21:27Z</time></trkpt>
<trkpt lat="35.356246" lon="138.732267"><ele>3491</ele><time>2026-05-03T01:21:47Z</time></trkpt>
<trkpt lat="35.356062" lon="138.732384"><ele>3479</ele><time>2026-05-03T01:22:53Z</time></trkpt>
<trkpt lat="35.35596" lon="138.732444"><ele>3473</ele><time>2026-05-03T01:23:17Z</time></trkpt>
<trkpt lat="35.355839" lon="138.732505"><ele>3464</ele><time>2026-05-03T01:23:40Z</time></trkpt>
<trkpt lat="35.355725" lon="138.73257"><ele>3458</ele><time>2026-05-03T01:24:04Z</time></trkpt>
<trkpt lat="35.355622" lon="138.73263"><ele>3451</ele><time>2026-05-03T01:24:30Z</time></trkpt>
<trkpt lat="35.355524" lon="138.732723"><ele>3445</ele><time>2026-05-03T01:24:53Z</time></trkpt>
<trkpt lat="35.355411" lon="138.73281"><ele>3438</ele><time>2026-05-03T01:26:06Z</time></trkpt>
<trkpt lat="35.355272" lon="138.732924"><ele>3430</ele><time>2026-05-03T01:26:33Z</time></trkpt>
<trkpt lat="35.355163" lon="138.733013"><ele>3425</ele><time>2026-05-03T01:26:53Z</time></trkpt>
<trkpt lat="35.355047" lon="138.733086"><ele>3419</ele><time>2026-05-03T01:27:13Z</time></trkpt>
<trkpt lat="35.354957" lon="138.733161"><ele>3414</ele><time>2026-05-03T01:27:32Z</time></trkpt>
<trkpt lat="35.354837" lon="138.733237"><ele>3409</ele><time>2026-05-03T01:27:52Z</time></trkpt>
<trkpt lat="35.354743" lon="138.733284"><ele>3405</ele><time>2026-05-03T01:28:11Z</time></trkpt>
<trkpt lat="35.35464" lon="138.73334"><ele>3399</ele><time>2026-05-03T01:28:30Z</time></trkpt>
<trkpt lat="35.354544" lon="138.733407"><ele>3395</ele><time>2026-05-03T01:28:49Z</time></trkpt>
<trkpt lat="35.354444" lon="138.733477"><ele>3389</ele><time>2026-05-03T01:29:09Z</time></trkpt>
<trkpt lat="35.35437" lon="138.733566"><ele>3383</ele><time>2026-05-03T01:29:28Z</time></trkpt>
<trkpt lat="35.354297" lon="138.733688"><ele>3376</ele><time>2026-05-03T01:29:48Z</time></trkpt>
<trkpt lat="35.354227" lon="138.733757"><ele>3371</ele><time>2026-05-03T01:30:07Z</time></trkpt>
<trkpt lat="35.354152" lon="138.733872"><ele>3366</ele><time>2026-05-03T01:30:27Z</time></trkpt>
<trkpt lat="35.354015" lon="138.734014"><ele>3357</ele><time>2026-05-03T01:31:29Z</time></trkpt>
<trkpt lat="35.353924" lon="138.734139"><ele>3351</ele><time>2026-05-03T01:31:52Z</time></trkpt>
<trkpt lat="35.353875" lon="138.734208"><ele>3346</ele><time>2026-05-03T01:32:08Z</time></trkpt>
<trkpt lat="35.353806" lon="138.734298"><ele>3340</ele><time>2026-05-03T01:32:25Z</time></trkpt>
<trkpt lat="35.353741" lon="138.734386"><ele>3335</ele><time>2026-05-03T01:32:42Z</time></trkpt>
<trkpt lat="35.353691" lon="138.734417"><ele>3332</ele><time>2026-05-03T01:33:17Z</time></trkpt>
<trkpt lat="35.353691" lon="138.734418"><ele>3332</ele><time>2026-05-03T01:33:27Z</time></trkpt>
<trkpt lat="35.35366" lon="138.734453"><ele>3329</ele><time>2026-05-03T01:33:53Z</time></trkpt>
<trkpt lat="35.35365" lon="138.734466"><ele>3329</ele><time>2026-05-03T01:33:57Z</time></trkpt>
<trkpt lat="35.353546" lon="138.734572"><ele>3321</ele><time>2026-05-03T01:34:29Z</time></trkpt>
<trkpt lat="35.353422" lon="138.734717"><ele>3311</ele><time>2026-05-03T01:35:01Z</time></trkpt>
<trkpt lat="35.353346" lon="138.734799"><ele>3305</ele><time>2026-05-03T01:35:26Z</time></trkpt>
<trkpt lat="35.353321" lon="138.734849"><ele>3303</ele><time>2026-05-03T01:35:51Z</time></trkpt>
<trkpt lat="35.353321" lon="138.734848"><ele>3303</ele><time>2026-05-03T01:36:49Z</time></trkpt>
<trkpt lat="35.353321" lon="138.734849"><ele>3303</ele><time>2026-05-03T01:37:59Z</time></trkpt>
<trkpt lat="35.353165" lon="138.735078"><ele>3292</ele><time>2026-05-03T01:38:38Z</time></trkpt>
<trkpt lat="35.353039" lon="138.735226"><ele>3281</ele><time>2026-05-03T01:39:07Z</time></trkpt>
<trkpt lat="35.352944" lon="138.735333"><ele>3276</ele><time>2026-05-03T01:39:29Z</time></trkpt>
<trkpt lat="35.352767" lon="138.735532"><ele>3263</ele><time>2026-05-03T01:40:09Z</time></trkpt>
<trkpt lat="35.352724" lon="138.735571"><ele>3260</ele><time>2026-05-03T01:40:21Z</time></trkpt>
<trkpt lat="35.352714" lon="138.735582"><ele>3259</ele><time>2026-05-03T01:40:37Z</time></trkpt>
<trkpt lat="35.352644" lon="138.73565"><ele>3254</ele><time>2026-05-03T01:40:56Z</time></trkpt>
<trkpt lat="35.352568" lon="138.735733"><ele>3249</ele><time>2026-05-03T01:41:15Z</time></trkpt>
<trkpt lat="35.352499" lon="138.735808"><ele>3243</ele><time>2026-05-03T01:41:34Z</time></trkpt>
<trkpt lat="35.35243" lon="138.735892"><ele>3238</ele><time>2026-05-03T01:41:53Z</time></trkpt>
<trkpt lat="35.352426" lon="138.735896"><ele>3238</ele><time>2026-05-03T01:42:11Z</time></trkpt>
<trkpt lat="35.352363" lon="138.735953"><ele>3233</ele><time>2026-05-03T01:43:27Z</time></trkpt>
<trkpt lat="35.352325" lon="138.736011"><ele>3229</ele><time>2026-05-03T01:43:36Z</time></trkpt>
<trkpt lat="35.352181" lon="138.736156"><ele>3219</ele><time>2026-05-03T01:44:04Z</time></trkpt>
<trkpt lat="35.35212" lon="138.736216"><ele>3213</ele><time>2026-05-03T01:44:24Z</time></trkpt>
<trkpt lat="35.352028" lon="138.736308"><ele>3207</ele><time>2026-05-03T01:45:02Z</time></trkpt>
<trkpt lat="35.352028" lon="138.736308"><ele>3207</ele><time>2026-05-03T01:45:08Z</time></trkpt>
<trkpt lat="35.351903" lon="138.736446"><ele>3197</ele><time>2026-05-03T01:45:34Z</time></trkpt>
<trkpt lat="35.351895" lon="138.73644"><ele>3197</ele><time>2026-05-03T01:45:47Z</time></trkpt>
<trkpt lat="35.35189" lon="138.736451"><ele>3197</ele><time>2026-05-03T01:46:08Z</time></trkpt>
<trkpt lat="35.351798" lon="138.736518"><ele>3189</ele><time>2026-05-03T01:46:33Z</time></trkpt>
<trkpt lat="35.351616" lon="138.736641"><ele>3179</ele><time>2026-05-03T01:47:10Z</time></trkpt>
<trkpt lat="35.351616" lon="138.736641"><ele>3179</ele><time>2026-05-03T01:47:29Z</time></trkpt>
<trkpt lat="35.351541" lon="138.736705"><ele>3173</ele><time>2026-05-03T01:47:51Z</time></trkpt>
<trkpt lat="35.35138" lon="138.736786"><ele>3163</ele><time>2026-05-03T01:48:09Z</time></trkpt>
<trkpt lat="35.351336" lon="138.736803"><ele>3161</ele><time>2026-05-03T01:48:33Z</time></trkpt>
<trkpt lat="35.351336" lon="138.736803"><ele>3161</ele><time>2026-05-03T01:48:54Z</time></trkpt>
<trkpt lat="35.351336" lon="138.736803"><ele>3161</ele><time>2026-05-03T01:49:10Z</time></trkpt>
<trkpt lat="35.351336" lon="138.736803"><ele>3161</ele><time>2026-05-03T01:49:37Z</time></trkpt>
<trkpt lat="35.351336" lon="138.736803"><ele>3161</ele><time>2026-05-03T01:50:07Z</time></trkpt>
<trkpt lat="35.351336" lon="138.736803"><ele>3161</ele><time>2026-05-03T01:50:13Z</time></trkpt>
<trkpt lat="35.35112" lon="138.736818"><ele>3148</ele><time>2026-05-03T01:50:48Z</time></trkpt>
<trkpt lat="35.351026" lon="138.736796"><ele>3144</ele><time>2026-05-03T01:51:04Z</time></trkpt>
<trkpt lat="35.350845" lon="138.736786"><ele>3134</ele><time>2026-05-03T01:51:30Z</time></trkpt>
<trkpt lat="35.350712" lon="138.736774"><ele>3127</ele><time>2026-05-03T01:51:49Z</time></trkpt>
<trkpt lat="35.350586" lon="138.736782"><ele>3120</ele><time>2026-05-03T01:52:08Z</time></trkpt>
<trkpt lat="35.350451" lon="138.736792"><ele>3114</ele><time>2026-05-03T01:52:27Z</time></trkpt>
<trkpt lat="35.35034" lon="138.736827"><ele>3107</ele><time>2026-05-03T01:52:45Z</time></trkpt>
<trkpt lat="35.350201" lon="138.736833"><ele>3100</ele><time>2026-05-03T01:53:04Z</time></trkpt>
<trkpt lat="35.350106" lon="138.736837"><ele>3097</ele><time>2026-05-03T01:53:18Z</time></trkpt>
<trkpt lat="35.35002" lon="138.736821"><ele>3092</ele><time>2026-05-03T01:53:30Z</time></trkpt>
<trkpt lat="35.349945" lon="138.736816"><ele>3089</ele><time>2026-05-03T01:53:42Z</time></trkpt>
<trkpt lat="35.349871" lon="138.736872"><ele>3084</ele><time>2026-05-03T01:53:55Z</time></trkpt>
<trkpt lat="35.349822" lon="138.73694"><ele>3081</ele><time>2026-05-03T01:54:08Z</time></trkpt>
<trkpt lat="35.349743" lon="138.73696"><ele>3075</ele><time>2026-05-03T01:54:21Z</time></trkpt>
<trkpt lat="35.349673" lon="138.736997"><ele>3070</ele><time>2026-05-03T01:54:34Z</time></trkpt>
<trkpt lat="35.34961" lon="138.737056"><ele>3065</ele><time>2026-05-03T01:54:46Z</time></trkpt>
<trkpt lat="35.349509" lon="138.737044"><ele>3061</ele><time>2026-05-03T01:54:59Z</time></trkpt>
<trkpt lat="35.349426" lon="138.736986"><ele>3057</ele><time>2026-05-03T01:55:11Z</time></trkpt>
<trkpt lat="35.349348" lon="138.736901"><ele>3055</ele><time>2026-05-03T01:55:23Z</time></trkpt>
<trkpt lat="35.349316" lon="138.736802"><ele>3053</ele><time>2026-05-03T01:55:36Z</time></trkpt>
<trkpt lat="35.349326" lon="138.736764"><ele>3053</ele><time>2026-05-03T01:56:05Z</time></trkpt>
<trkpt lat="35.349305" lon="138.736748"><ele>3053</ele><time>2026-05-03T01:56:45Z</time></trkpt>
<trkpt lat="35.349291" lon="138.736534"><ele>3049</ele><time>2026-05-03T01:57:10Z</time></trkpt>
<trkpt lat="35.349194" lon="138.736459"><ele>3045</ele><time>2026-05-03T01:57:27Z</time></trkpt>
<trkpt lat="35.349098" lon="138.736415"><ele>3039</ele><time>2026-05-03T01:57:43Z</time></trkpt>
<trkpt lat="35.348979" lon="138.736427"><ele>3030</ele><time>2026-05-03T01:58:00Z</time></trkpt>
<trkpt lat="35.348858" lon="138.736424"><ele>3025</ele><time>2026-05-03T01:58:17Z</time></trkpt>
<trkpt lat="35.348771" lon="138.736412"><ele>3019</ele><time>2026-05-03T01:58:33Z</time></trkpt>
<trkpt lat="35.348658" lon="138.736417"><ele>3013</ele><time>2026-05-03T01:58:52Z</time></trkpt>
<trkpt lat="35.34855" lon="138.736433"><ele>3007</ele><time>2026-05-03T01:59:08Z</time></trkpt>
<trkpt lat="35.348439" lon="138.736435"><ele>3001</ele><time>2026-05-03T01:59:25Z</time></trkpt>
<trkpt lat="35.348317" lon="138.736458"><ele>2996</ele><time>2026-05-03T01:59:42Z</time></trkpt>
<trkpt lat="35.348208" lon="138.736462"><ele>2989</ele><time>2026-05-03T01:59:58Z</time></trkpt>
<trkpt lat="35.348107" lon="138.736493"><ele>2984</ele><time>2026-05-03T02:00:14Z</time></trkpt>
<trkpt lat="35.348013" lon="138.736509"><ele>2978</ele><time>2026-05-03T02:00:30Z</time></trkpt>
<trkpt lat="35.347916" lon="138.736537"><ele>2973</ele><time>2026-05-03T02:00:47Z</time></trkpt>
<trkpt lat="35.347807" lon="138.736578"><ele>2966</ele><time>2026-05-03T02:01:03Z</time></trkpt>
<trkpt lat="35.347694" lon="138.736606"><ele>2959</ele><time>2026-05-03T02:01:20Z</time></trkpt>
<trkpt lat="35.347588" lon="138.736627"><ele>2954</ele><time>2026-05-03T02:01:36Z</time></trkpt>
<trkpt lat="35.347487" lon="138.736672"><ele>2948</ele><time>2026-05-03T02:01:53Z</time></trkpt>
<trkpt lat="35.34739" lon="138.736703"><ele>2941</ele><time>2026-05-03T02:02:09Z</time></trkpt>
<trkpt lat="35.347275" lon="138.736735"><ele>2935</ele><time>2026-05-03T02:02:26Z</time></trkpt>
<trkpt lat="35.347174" lon="138.736756"><ele>2930</ele><time>2026-05-03T02:02:42Z</time></trkpt>
<trkpt lat="35.347058" lon="138.736705"><ele>2925</ele><time>2026-05-03T02:03:14Z</time></trkpt>
<trkpt lat="35.347059" lon="138.736705"><ele>2925</ele><time>2026-05-03T02:03:34Z</time></trkpt>
<trkpt lat="35.347059" lon="138.736705"><ele>2925</ele><time>2026-05-03T02:03:56Z</time></trkpt>
<trkpt lat="35.347057" lon="138.736704"><ele>2925</ele><time>2026-05-03T02:04:21Z</time></trkpt>
<trkpt lat="35.347054" lon="138.736706"><ele>2925</ele><time>2026-05-03T02:04:50Z</time></trkpt>
<trkpt lat="35.347058" lon="138.736735"><ele>2924</ele><time>2026-05-03T02:05:21Z</time></trkpt>
<trkpt lat="35.347059" lon="138.736741"><ele>2924</ele><time>2026-05-03T02:06:34Z</time></trkpt>
<trkpt lat="35.347015" lon="138.736703"><ele>2922</ele><time>2026-05-03T02:08:45Z</time></trkpt>
<trkpt lat="35.347012" lon="138.736704"><ele>2922</ele><time>2026-05-03T02:09:35Z</time></trkpt>
<trkpt lat="35.346731" lon="138.736587"><ele>2908</ele><time>2026-05-03T02:10:28Z</time></trkpt>
<trkpt lat="35.3465" lon="138.736464"><ele>2899</ele><time>2026-05-03T02:11:08Z</time></trkpt>
<trkpt lat="35.346329" lon="138.73633"><ele>2891</ele><time>2026-05-03T02:11:36Z</time></trkpt>
<trkpt lat="35.346183" lon="138.736279"><ele>2883</ele><time>2026-05-03T02:12:10Z</time></trkpt>
<trkpt lat="35.346169" lon="138.736371"><ele>2880</ele><time>2026-05-03T02:12:23Z</time></trkpt>
<trkpt lat="35.346134" lon="138.736436"><ele>2877</ele><time>2026-05-03T02:12:36Z</time></trkpt>
<trkpt lat="35.346115" lon="138.736512"><ele>2876</ele><time>2026-05-03T02:12:49Z</time></trkpt>
<trkpt lat="35.346026" lon="138.736534"><ele>2871</ele><time>2026-05-03T02:13:02Z</time></trkpt>
<trkpt lat="35.34596" lon="138.736491"><ele>2867</ele><time>2026-05-03T02:13:16Z</time></trkpt>
<trkpt lat="35.345859" lon="138.736447"><ele>2863</ele><time>2026-05-03T02:13:30Z</time></trkpt>
<trkpt lat="35.345783" lon="138.736396"><ele>2860</ele><time>2026-05-03T02:13:44Z</time></trkpt>
<trkpt lat="35.345699" lon="138.736335"><ele>2857</ele><time>2026-05-03T02:13:58Z</time></trkpt>
<trkpt lat="35.34561" lon="138.73629"><ele>2852</ele><time>2026-05-03T02:14:12Z</time></trkpt>
<trkpt lat="35.345529" lon="138.736199"><ele>2848</ele><time>2026-05-03T02:14:26Z</time></trkpt>
<trkpt lat="35.345466" lon="138.736166"><ele>2846</ele><time>2026-05-03T02:14:39Z</time></trkpt>
<trkpt lat="35.345427" lon="138.736226"><ele>2842</ele><time>2026-05-03T02:14:52Z</time></trkpt>
<trkpt lat="35.345377" lon="138.736287"><ele>2839</ele><time>2026-05-03T02:15:08Z</time></trkpt>
<trkpt lat="35.345329" lon="138.736346"><ele>2835</ele><time>2026-05-03T02:15:22Z</time></trkpt>
<trkpt lat="35.345259" lon="138.736312"><ele>2832</ele><time>2026-05-03T02:15:35Z</time></trkpt>
<trkpt lat="35.345187" lon="138.736263"><ele>2830</ele><time>2026-05-03T02:15:48Z</time></trkpt>
<trkpt lat="35.345133" lon="138.736225"><ele>2828</ele><time>2026-05-03T02:16:01Z</time></trkpt>
<trkpt lat="35.345063" lon="138.736213"><ele>2825</ele><time>2026-05-03T02:16:15Z</time></trkpt>
<trkpt lat="35.345042" lon="138.736305"><ele>2822</ele><time>2026-05-03T02:16:28Z</time></trkpt>
<trkpt lat="35.344962" lon="138.736337"><ele>2818</ele><time>2026-05-03T02:16:42Z</time></trkpt>
<trkpt lat="35.344866" lon="138.736237"><ele>2813</ele><time>2026-05-03T02:16:55Z</time></trkpt>
<trkpt lat="35.344812" lon="138.736177"><ele>2810</ele><time>2026-05-03T02:17:08Z</time></trkpt>
<trkpt lat="35.344725" lon="138.736258"><ele>2806</ele><time>2026-05-03T02:17:36Z</time></trkpt>
<trkpt lat="35.344714" lon="138.736387"><ele>2803</ele><time>2026-05-03T02:17:49Z</time></trkpt>
<trkpt lat="35.34468" lon="138.736524"><ele>2799</ele><time>2026-05-03T02:18:03Z</time></trkpt>
<trkpt lat="35.344679" lon="138.736656"><ele>2796</ele><time>2026-05-03T02:18:16Z</time></trkpt>
<trkpt lat="35.344615" lon="138.736757"><ele>2793</ele><time>2026-05-03T02:18:29Z</time></trkpt>
<trkpt lat="35.344587" lon="138.736785"><ele>2790</ele><time>2026-05-03T02:18:57Z</time></trkpt>
<trkpt lat="35.344546" lon="138.73668"><ele>2790</ele><time>2026-05-03T02:19:10Z</time></trkpt>
<trkpt lat="35.344495" lon="138.736657"><ele>2786</ele><time>2026-05-03T02:19:25Z</time></trkpt>
<trkpt lat="35.344477" lon="138.736755"><ele>2785</ele><time>2026-05-03T02:19:41Z</time></trkpt>
<trkpt lat="35.344418" lon="138.736801"><ele>2780</ele><time>2026-05-03T02:19:58Z</time></trkpt>
<trkpt lat="35.344356" lon="138.736861"><ele>2774</ele><time>2026-05-03T02:20:14Z</time></trkpt>
<trkpt lat="35.344258" lon="138.736886"><ele>2770</ele><time>2026-05-03T02:20:31Z</time></trkpt>
<trkpt lat="35.344185" lon="138.7369"><ele>2765</ele><time>2026-05-03T02:20:45Z</time></trkpt>
<trkpt lat="35.344153" lon="138.736906"><ele>2763</ele><time>2026-05-03T02:20:58Z</time></trkpt>
<trkpt lat="35.344081" lon="138.736985"><ele>2756</ele><time>2026-05-03T02:21:18Z</time></trkpt>
<trkpt lat="35.344073" lon="138.73698"><ele>2756</ele><time>2026-05-03T02:21:38Z</time></trkpt>
<trkpt lat="35.343991" lon="138.736995"><ele>2750</ele><time>2026-05-03T02:21:54Z</time></trkpt>
<trkpt lat="35.343893" lon="138.737015"><ele>2744</ele><time>2026-05-03T02:22:16Z</time></trkpt>
<trkpt lat="35.343816" lon="138.737046"><ele>2739</ele><time>2026-05-03T02:22:39Z</time></trkpt>
<trkpt lat="35.343816" lon="138.737046"><ele>2739</ele><time>2026-05-03T02:22:49Z</time></trkpt>
<trkpt lat="35.343682" lon="138.737001"><ele>2733</ele><time>2026-05-03T02:23:14Z</time></trkpt>
<trkpt lat="35.343547" lon="138.73696"><ele>2727</ele><time>2026-05-03T02:23:39Z</time></trkpt>
<trkpt lat="35.34345" lon="138.736919"><ele>2722</ele><time>2026-05-03T02:23:59Z</time></trkpt>
<trkpt lat="35.34335" lon="138.736825"><ele>2719</ele><time>2026-05-03T02:24:18Z</time></trkpt>
<trkpt lat="35.343294" lon="138.73679"><ele>2716</ele><time>2026-05-03T02:24:37Z</time></trkpt>
<trkpt lat="35.343212" lon="138.73684"><ele>2713</ele><time>2026-05-03T02:24:57Z</time></trkpt>
<trkpt lat="35.343106" lon="138.736783"><ele>2708</ele><time>2026-05-03T02:25:17Z</time></trkpt>
<trkpt lat="35.342996" lon="138.736696"><ele>2702</ele><time>2026-05-03T02:25:36Z</time></trkpt>
<trkpt lat="35.342951" lon="138.736799"><ele>2698</ele><time>2026-05-03T02:25:56Z</time></trkpt>
<trkpt lat="35.342854" lon="138.736812"><ele>2694</ele><time>2026-05-03T02:26:15Z</time></trkpt>
<trkpt lat="35.342714" lon="138.736714"><ele>2687</ele><time>2026-05-03T02:26:35Z</time></trkpt>
<trkpt lat="35.342639" lon="138.736718"><ele>2684</ele><time>2026-05-03T02:26:49Z</time></trkpt>
<trkpt lat="35.342554" lon="138.736826"><ele>2679</ele><time>2026-05-03T02:27:15Z</time></trkpt>
<trkpt lat="35.342466" lon="138.7368"><ele>2676</ele><time>2026-05-03T02:27:28Z</time></trkpt>
<trkpt lat="35.342381" lon="138.736785"><ele>2673</ele><time>2026-05-03T02:27:40Z</time></trkpt>
<trkpt lat="35.342314" lon="138.73677"><ele>2669</ele><time>2026-05-03T02:27:52Z</time></trkpt>
<trkpt lat="35.342274" lon="138.736781"><ele>2668</ele><time>2026-05-03T02:28:05Z</time></trkpt>
<trkpt lat="35.3422" lon="138.736891"><ele>2662</ele><time>2026-05-03T02:28:35Z</time></trkpt>
<trkpt lat="35.34213" lon="138.736891"><ele>2659</ele><time>2026-05-03T02:28:51Z</time></trkpt>
<trkpt lat="35.342072" lon="138.73687"><ele>2657</ele><time>2026-05-03T02:29:06Z</time></trkpt>
<trkpt lat="35.34203" lon="138.736943"><ele>2653</ele><time>2026-05-03T02:29:21Z</time></trkpt>
<trkpt lat="35.341997" lon="138.737017"><ele>2647</ele><time>2026-05-03T02:29:37Z</time></trkpt>
<trkpt lat="35.341928" lon="138.737078"><ele>2644</ele><time>2026-05-03T02:29:53Z</time></trkpt>
<trkpt lat="35.341851" lon="138.737027"><ele>2642</ele><time>2026-05-03T02:30:08Z</time></trkpt>
<trkpt lat="35.34176" lon="138.737029"><ele>2637</ele><time>2026-05-03T02:30:24Z</time></trkpt>
<trkpt lat="35.341703" lon="138.736992"><ele>2635</ele><time>2026-05-03T02:30:39Z</time></trkpt>
<trkpt lat="35.341688" lon="138.737008"><ele>2634</ele><time>2026-05-03T02:30:55Z</time></trkpt>
<trkpt lat="35.34166" lon="138.736976"><ele>2634</ele><time>2026-05-03T02:32:28Z</time></trkpt>
<trkpt lat="35.341662" lon="138.736975"><ele>2634</ele><time>2026-05-03T02:35:32Z</time></trkpt>
<trkpt lat="35.341662" lon="138.736978"><ele>2634</ele><time>2026-05-03T02:36:18Z</time></trkpt>
<trkpt lat="35.341421" lon="138.737055"><ele>2621</ele><time>2026-05-03T02:37:11Z</time></trkpt>
<trkpt lat="35.341227" lon="138.737052"><ele>2613</ele><time>2026-05-03T02:37:48Z</time></trkpt>
<trkpt lat="35.341155" lon="138.737242"><ele>2607</ele><time>2026-05-03T02:38:18Z</time></trkpt>
<trkpt lat="35.341202" lon="138.737492"><ele>2603</ele><time>2026-05-03T02:38:41Z</time></trkpt>
<trkpt lat="35.341185" lon="138.737591"><ele>2600</ele><time>2026-05-03T02:38:55Z</time></trkpt>
<trkpt lat="35.341169" lon="138.737698"><ele>2595</ele><time>2026-05-03T02:39:08Z</time></trkpt>
<trkpt lat="35.341127" lon="138.737738"><ele>2593</ele><time>2026-05-03T02:39:21Z</time></trkpt>
<trkpt lat="35.341024" lon="138.73767"><ele>2590</ele><time>2026-05-03T02:39:38Z</time></trkpt>
<trkpt lat="35.340919" lon="138.737549"><ele>2587</ele><time>2026-05-03T02:39:54Z</time></trkpt>
<trkpt lat="35.340872" lon="138.737555"><ele>2585</ele><time>2026-05-03T02:40:05Z</time></trkpt>
<trkpt lat="35.340826" lon="138.737658"><ele>2580</ele><time>2026-05-03T02:40:19Z</time></trkpt>
<trkpt lat="35.340782" lon="138.737708"><ele>2578</ele><time>2026-05-03T02:40:32Z</time></trkpt>
<trkpt lat="35.340694" lon="138.737589"><ele>2577</ele><time>2026-05-03T02:40:49Z</time></trkpt>
<trkpt lat="35.34063" lon="138.737653"><ele>2573</ele><time>2026-05-03T02:41:06Z</time></trkpt>
<trkpt lat="35.34063" lon="138.737785"><ele>2570</ele><time>2026-05-03T02:41:23Z</time></trkpt>
<trkpt lat="35.340631" lon="138.737945"><ele>2566</ele><time>2026-05-03T02:41:39Z</time></trkpt>
<trkpt lat="35.34062" lon="138.738086"><ele>2563</ele><time>2026-05-03T02:41:56Z</time></trkpt>
<trkpt lat="35.340511" lon="138.73814"><ele>2556</ele><time>2026-05-03T02:42:30Z</time></trkpt>
<trkpt lat="35.340395" lon="138.738076"><ele>2551</ele><time>2026-05-03T02:42:47Z</time></trkpt>
<trkpt lat="35.34027" lon="138.738014"><ele>2546</ele><time>2026-05-03T02:43:21Z</time></trkpt>
<trkpt lat="35.340185" lon="138.737971"><ele>2542</ele><time>2026-05-03T02:43:38Z</time></trkpt>
<trkpt lat="35.34016" lon="138.738102"><ele>2539</ele><time>2026-05-03T02:43:54Z</time></trkpt>
<trkpt lat="35.34003" lon="138.73811"><ele>2532</ele><time>2026-05-03T02:44:27Z</time></trkpt>
<trkpt lat="35.339938" lon="138.738005"><ele>2528</ele><time>2026-05-03T02:44:44Z</time></trkpt>
<trkpt lat="35.339848" lon="138.737963"><ele>2526</ele><time>2026-05-03T02:45:00Z</time></trkpt>
<trkpt lat="35.339742" lon="138.737911"><ele>2521</ele><time>2026-05-03T02:45:17Z</time></trkpt>
<trkpt lat="35.339692" lon="138.737924"><ele>2518</ele><time>2026-05-03T02:45:33Z</time></trkpt>
<trkpt lat="35.339644" lon="138.73801"><ele>2514</ele><time>2026-05-03T02:45:52Z</time></trkpt>
<trkpt lat="35.339582" lon="138.738041"><ele>2511</ele><time>2026-05-03T02:46:12Z</time></trkpt>
<trkpt lat="35.339573" lon="138.738228"><ele>2509</ele><time>2026-05-03T02:46:31Z</time></trkpt>
<trkpt lat="35.339514" lon="138.738286"><ele>2505</ele><time>2026-05-03T02:46:45Z</time></trkpt>
<trkpt lat="35.339458" lon="138.738223"><ele>2502</ele><time>2026-05-03T02:46:58Z</time></trkpt>
<trkpt lat="35.339405" lon="138.738261"><ele>2499</ele><time>2026-05-03T02:47:12Z</time></trkpt>
<trkpt lat="35.339326" lon="138.738267"><ele>2497</ele><time>2026-05-03T02:47:25Z</time></trkpt>
<trkpt lat="35.339253" lon="138.738275"><ele>2495</ele><time>2026-05-03T02:47:39Z</time></trkpt>
<trkpt lat="35.339198" lon="138.73817"><ele>2494</ele><time>2026-05-03T02:47:53Z</time></trkpt>
<trkpt lat="35.339177" lon="138.73808"><ele>2493</ele><time>2026-05-03T02:48:07Z</time></trkpt>
<trkpt lat="35.339169" lon="138.737913"><ele>2495</ele><time>2026-05-03T02:48:20Z</time></trkpt>
<trkpt lat="35.339157" lon="138.737741"><ele>2494</ele><time>2026-05-03T02:48:33Z</time></trkpt>
<trkpt lat="35.339163" lon="138.737637"><ele>2492</ele><time>2026-05-03T02:48:41Z</time></trkpt>
<trkpt lat="35.339172" lon="138.737558"><ele>2492</ele><time>2026-05-03T02:48:48Z</time></trkpt>
<trkpt lat="35.339188" lon="138.737429"><ele>2493</ele><time>2026-05-03T02:48:59Z</time></trkpt>
<trkpt lat="35.33915" lon="138.737306"><ele>2493</ele><time>2026-05-03T02:49:10Z</time></trkpt>
<trkpt lat="35.339062" lon="138.737252"><ele>2491</ele><time>2026-05-03T02:49:20Z</time></trkpt>
<trkpt lat="35.338953" lon="138.737213"><ele>2489</ele><time>2026-05-03T02:49:31Z</time></trkpt>
<trkpt lat="35.338903" lon="138.737152"><ele>2486</ele><time>2026-05-03T02:49:41Z</time></trkpt>
<trkpt lat="35.338884" lon="138.737036"><ele>2484</ele><time>2026-05-03T02:49:51Z</time></trkpt>
<trkpt lat="35.33888" lon="138.73692"><ele>2481</ele><time>2026-05-03T02:50:01Z</time></trkpt>
<trkpt lat="35.338872" lon="138.736805"><ele>2478</ele><time>2026-05-03T02:50:12Z</time></trkpt>
<trkpt lat="35.338846" lon="138.736693"><ele>2476</ele><time>2026-05-03T02:50:23Z</time></trkpt>
<trkpt lat="35.338812" lon="138.736595"><ele>2472</ele><time>2026-05-03T02:50:33Z</time></trkpt>
<trkpt lat="35.338758" lon="138.736503"><ele>2470</ele><time>2026-05-03T02:50:43Z</time></trkpt>
<trkpt lat="35.338705" lon="138.736408"><ele>2466</ele><time>2026-05-03T02:50:54Z</time></trkpt>
<trkpt lat="35.338654" lon="138.736328"><ele>2465</ele><time>2026-05-03T02:51:05Z</time></trkpt>
<trkpt lat="35.338616" lon="138.736248"><ele>2461</ele><time>2026-05-03T02:51:15Z</time></trkpt>
<trkpt lat="35.338552" lon="138.736165"><ele>2459</ele><time>2026-05-03T02:51:26Z</time></trkpt>
<trkpt lat="35.338478" lon="138.7361"><ele>2456</ele><time>2026-05-03T02:51:37Z</time></trkpt>
<trkpt lat="35.338418" lon="138.735997"><ele>2452</ele><time>2026-05-03T02:51:47Z</time></trkpt>
<trkpt lat="35.338369" lon="138.735904"><ele>2449</ele><time>2026-05-03T02:51:58Z</time></trkpt>
<trkpt lat="35.338321" lon="138.735828"><ele>2448</ele><time>2026-05-03T02:52:08Z</time></trkpt>
<trkpt lat="35.338259" lon="138.735738"><ele>2445</ele><time>2026-05-03T02:52:18Z</time></trkpt>
<trkpt lat="35.338199" lon="138.735654"><ele>2444</ele><time>2026-05-03T02:52:29Z</time></trkpt>
<trkpt lat="35.338117" lon="138.735557"><ele>2440</ele><time>2026-05-03T02:52:40Z</time></trkpt>
<trkpt lat="35.338034" lon="138.735486"><ele>2438</ele><time>2026-05-03T02:52:51Z</time></trkpt>
<trkpt lat="35.337958" lon="138.735408"><ele>2437</ele><time>2026-05-03T02:53:01Z</time></trkpt>
<trkpt lat="35.337867" lon="138.735339"><ele>2434</ele><time>2026-05-03T02:53:11Z</time></trkpt>
<trkpt lat="35.337775" lon="138.735262"><ele>2432</ele><time>2026-05-03T02:53:22Z</time></trkpt>
<trkpt lat="35.337694" lon="138.735194"><ele>2431</ele><time>2026-05-03T02:53:32Z</time></trkpt>
<trkpt lat="35.337617" lon="138.735108"><ele>2429</ele><time>2026-05-03T02:53:43Z</time></trkpt>
<trkpt lat="35.337486" lon="138.735143"><ele>2424</ele><time>2026-05-03T02:54:05Z</time></trkpt>
<trkpt lat="35.337497" lon="138.735254"><ele>2423</ele><time>2026-05-03T02:54:15Z</time></trkpt>
<trkpt lat="35.337516" lon="138.735366"><ele>2420</ele><time>2026-05-03T02:54:25Z</time></trkpt>
<trkpt lat="35.337546" lon="138.735488"><ele>2419</ele><time>2026-05-03T02:54:36Z</time></trkpt>
<trkpt lat="35.337566" lon="138.735621"><ele>2417</ele><time>2026-05-03T02:54:47Z</time></trkpt>
<trkpt lat="35.337585" lon="138.735736"><ele>2415</ele><time>2026-05-03T02:54:57Z</time></trkpt>
<trkpt lat="35.337572" lon="138.735794"><ele>2415</ele><time>2026-05-03T02:55:07Z</time></trkpt>
<trkpt lat="35.337554" lon="138.735957"><ele>2413</ele><time>2026-05-03T02:55:21Z</time></trkpt>
<trkpt lat="35.337499" lon="138.736109"><ele>2411</ele><time>2026-05-03T02:55:35Z</time></trkpt>
<trkpt lat="35.337471" lon="138.736173"><ele>2409</ele><time>2026-05-03T02:55:42Z</time></trkpt>
<trkpt lat="35.337408" lon="138.736263"><ele>2407</ele><time>2026-05-03T02:55:53Z</time></trkpt>
<trkpt lat="35.337345" lon="138.736303"><ele>2405</ele><time>2026-05-03T02:56:03Z</time></trkpt>
<trkpt lat="35.337268" lon="138.736361"><ele>2402</ele><time>2026-05-03T02:56:14Z</time></trkpt>
<trkpt lat="35.337204" lon="138.736413"><ele>2400</ele><time>2026-05-03T02:56:24Z</time></trkpt>
<trkpt lat="35.337115" lon="138.736469"><ele>2398</ele><time>2026-05-03T02:56:35Z</time></trkpt>
<trkpt lat="35.337058" lon="138.736513"><ele>2395</ele><time>2026-05-03T02:56:45Z</time></trkpt>
<trkpt lat="35.336996" lon="138.736604"><ele>2393</ele><time>2026-05-03T02:56:56Z</time></trkpt>
<trkpt lat="35.33692" lon="138.736666"><ele>2391</ele><time>2026-05-03T02:57:06Z</time></trkpt>
<trkpt lat="35.336862" lon="138.736735"><ele>2388</ele><time>2026-05-03T02:57:17Z</time></trkpt>
<trkpt lat="35.336797" lon="138.736833"><ele>2386</ele><time>2026-05-03T02:57:28Z</time></trkpt>
<trkpt lat="35.336742" lon="138.736893"><ele>2384</ele><time>2026-05-03T02:57:39Z</time></trkpt>
<trkpt lat="35.336716" lon="138.73697"><ele>2382</ele><time>2026-05-03T02:57:49Z</time></trkpt>
<trkpt lat="35.336682" lon="138.737046"><ele>2378</ele><time>2026-05-03T02:57:59Z</time></trkpt>
<trkpt lat="35.33659" lon="138.737068"><ele>2374</ele><time>2026-05-03T02:58:11Z</time></trkpt>
<trkpt lat="35.336517" lon="138.736984"><ele>2372</ele><time>2026-05-03T02:58:22Z</time></trkpt>
<trkpt lat="35.336483" lon="138.736849"><ele>2372</ele><time>2026-05-03T02:58:33Z</time></trkpt>
<trkpt lat="35.336525" lon="138.736743"><ele>2373</ele><time>2026-05-03T02:58:43Z</time></trkpt>
<trkpt lat="35.336567" lon="138.736666"><ele>2374</ele><time>2026-05-03T02:58:53Z</time></trkpt>
<trkpt lat="35.336591" lon="138.736574"><ele>2374</ele><time>2026-05-03T02:59:02Z</time></trkpt>
<trkpt lat="35.336619" lon="138.736477"><ele>2375</ele><time>2026-05-03T02:59:13Z</time></trkpt>
<trkpt lat="35.336595" lon="138.736449"><ele>2375</ele><time>2026-05-03T02:59:24Z</time></trkpt>
<trkpt lat="35.33659" lon="138.736452"><ele>2375</ele><time>2026-05-03T02:59:38Z</time></trkpt>
<trkpt lat="35.33659" lon="138.736452"><ele>2375</ele><time>2026-05-03T02:59:55Z</time></trkpt>
<trkpt lat="35.336625" lon="138.736471"><ele>2375</ele><time>2026-05-03T03:00:14Z</time></trkpt>
<trkpt lat="35.33662" lon="138.736459"><ele>2375</ele><time>2026-05-03T03:01:00Z</time></trkpt>
</trkseg>
</trk>
</gpx>
